LO233 / SP-LND 7700 Squawk Report (24th of January, 2022)

Aircraft E195 Reg No. SP-LND Age N/A
Model Emb-195 Jet engines 2 First flight N/A
Registered 25-02-12 Rollout N/A Delivered 25-02-12
Construction No. 19000516 Line No. N/A Series 200LR
ADSHEX 48ADA3 Airline name LOT Polish Airlines Owner N/A
Airfield based Warsaw-Okecie~Mazowieckie~SP First tracked N/A

Flight history for SP-LND

Time Lat Lon Altitude Heading Speed Vertical Rate
2022-01-24 17:15:35 GMT 51.293674 6.781464 -425 233 139 -768
2022-01-24 17:15:29 GMT 51.295540 6.785355 -350 233 138 -768
2022-01-24 17:15:25 GMT 51.296936 6.788330 -300 233 136 -640
2022-01-24 17:15:21 GMT 51.298286 6.791153 -275 234 135 -768
2022-01-24 17:15:17 GMT 51.300156 6.795118 -200 234 135 -832
2022-01-24 17:15:13 GMT 51.301266 6.797562 -125 233 135 -832
2022-01-24 17:15:09 GMT 51.303040 6.801205 -100 233 137 -832
2022-01-24 17:15:04 GMT 51.305874 6.807251 50 233 139 -704
2022-01-24 17:15:01 GMT 51.305874 6.807251 200 234 140 0
2022-01-24 17:14:58 GMT 51.307068 6.809668 75 233 139 -832
2022-01-24 17:14:55 GMT 51.308201 6.812134 75 233 137 -768
2022-01-24 17:14:52 GMT 51.309402 6.814567 200 234 140 0
2022-01-24 17:14:49 GMT 51.310715 6.817322 200 233 139 -832
2022-01-24 17:14:46 GMT 51.312012 6.820134 200 233 139 -832
2022-01-24 17:14:42 GMT 51.313370 6.822891 275 234 140 -768
2022-01-24 17:14:39 GMT 51.314438 6.825104 275 234 140 -832
2022-01-24 17:14:34 GMT 51.317780 6.832308 375 234 139 -768
2022-01-24 17:14:31 GMT 51.317780 6.832308 400 233 139 -768
2022-01-24 17:14:27 GMT 51.319096 6.835098 400 233 139 -768
2022-01-24 17:14:24 GMT 51.320492 6.837997 500 233 137 -768
2022-01-24 17:14:21 GMT 51.321671 6.840400 525 233 137 -768
2022-01-24 17:14:18 GMT 51.322678 6.842499 550 233 138 -768
2022-01-24 17:14:14 GMT 51.324402 6.846085 625 233 139 -704
2022-01-24 17:14:11 GMT 51.325474 6.848450 625 233 139 -704
2022-01-24 17:14:08 GMT 51.326588 6.850739 650 233 139 -704
2022-01-24 17:14:04 GMT 51.328449 6.854630 725 234 139 -832
2022-01-24 17:14:01 GMT 51.329453 6.856731 750 234 139 -832
2022-01-24 17:13:58 GMT 51.330452 6.858902 800 234 140 -832
2022-01-24 17:13:55 GMT 51.331970 6.862075 850 233 142 -832
2022-01-24 17:13:52 GMT 51.332932 6.864080 875 233 144 -832
2022-01-24 17:13:49 GMT 51.334351 6.867123 925 234 147 -832
2022-01-24 17:13:44 GMT 51.336502 6.871726 1,025 233 152 -896
2022-01-24 17:13:41 GMT 51.337326 6.873507 1,050 234 153 -960
2022-01-24 17:13:38 GMT 51.338970 6.876984 1,075 233 157 -896
2022-01-24 17:13:35 GMT 51.340740 6.880722 1,150 234 160 -960
2022-01-24 17:13:32 GMT 51.341625 6.882629 1,200 234 164 -960
2022-01-24 17:13:28 GMT 51.343628 6.886978 1,250 234 168 -1024
2022-01-24 17:13:24 GMT 51.345428 6.890729 1,350 234 172 -960
2022-01-24 17:13:21 GMT 51.346653 6.893387 1,350 234 175 -1088
2022-01-24 17:13:17 GMT 51.348236 6.896744 1,400 234 177 -1024
2022-01-24 17:13:13 GMT 51.350376 6.901321 1,500 234 180 -1024
2022-01-24 17:13:10 GMT 51.351959 6.904755 1,500 234 180 -1024
2022-01-24 17:13:07 GMT 51.353168 6.907272 1,575 233 180 -960
2022-01-24 17:13:04 GMT 51.354984 6.911163 1,625 234 181 -960
2022-01-24 17:13:01 GMT 51.356506 6.914335 1,725 233 184 -960
2022-01-24 17:12:58 GMT 51.358383 6.918195 1,750 233 188 -1152
2022-01-24 17:12:55 GMT 51.360107 6.921921 1,800 233 187 -1024
2022-01-24 17:12:52 GMT 51.361084 6.923985 1,825 233 187 -1024
2022-01-24 17:12:49 GMT 51.362900 6.927719 1,900 233 188 -1152
2022-01-24 17:12:46 GMT 51.364204 6.930389 2,000 232 190 -1152
2022-01-24 17:12:43 GMT 51.365799 6.933635 2,025 232 191 -1088
2022-01-24 17:12:40 GMT 51.367462 6.936951 2,100 259 217 -960
2022-01-24 17:12:37 GMT 51.369324 6.940761 2,100 232 192 -1088
2022-01-24 17:12:33 GMT 51.371651 6.945419 2,175 233 193 -1024
2022-01-24 17:12:30 GMT 51.372723 6.947708 2,450 236 194 -1024
2022-01-24 17:12:27 GMT 51.374817 6.952209 2,300 239 196 -896
2022-01-24 17:12:24 GMT 51.376328 6.955830 2,350 239 196 -896
2022-01-24 17:12:21 GMT 51.377750 6.959534 2,375 241 196 -896
2022-01-24 17:12:18 GMT 51.379101 6.963120 2,425 241 196 -896
2022-01-24 17:12:14 GMT 51.380768 6.967930 2,475 244 194 -512
2022-01-24 17:12:11 GMT 51.382416 6.973052 2,500 250 198 -896
2022-01-24 17:12:07 GMT 51.383789 6.978471 2,550 251 198 -896
2022-01-24 17:12:04 GMT 51.384338 6.981218 2,600 256 201 -896
2022-01-24 17:12:00 GMT 51.385246 6.986771 2,650 259 204 -704
2022-01-24 17:11:56 GMT 51.385990 6.992569 2,750 259 212 -896
2022-01-24 17:11:53 GMT 51.386490 6.996584 2,725 259 209 -768
2022-01-24 17:11:50 GMT 51.387177 7.002077 2,850 259 223 -1088
2022-01-24 17:11:47 GMT 51.387756 7.006683 2,850 259 215 -960
2022-01-24 17:11:44 GMT 51.388550 7.012939 2,900 259 217 -960
2022-01-24 17:11:41 GMT 51.389015 7.016678 2,925 259 218 -1024
2022-01-24 17:11:38 GMT 51.389511 7.020783 2,975 259 219 -1024
2022-01-24 17:11:35 GMT 51.390198 7.026573 3,025 259 220 -1088
2022-01-24 17:11:31 GMT 51.390877 7.032013 3,125 259 222 -1280
2022-01-24 17:11:28 GMT 51.391571 7.037337 3,150 259 222 -1280
2022-01-24 17:11:25 GMT 51.391983 7.040677 3,200 259 223 -1088
2022-01-24 17:11:22 GMT 51.392834 7.047501 3,275 259 224 -1088
2022-01-24 17:11:19 GMT 51.393356 7.051738 3,325 259 225 -1152
2022-01-24 17:11:16 GMT 51.394043 7.057266 3,425 259 225 -1152
2022-01-24 17:11:13 GMT 51.394592 7.061462 3,425 259 225 -1152
2022-01-24 17:11:09 GMT 51.395348 7.067642 4,100 259 227 -1152
2022-01-24 17:11:06 GMT 51.395996 7.072830 3,575 259 226 -1152
2022-01-24 17:11:03 GMT 51.396606 7.077868 4,100 259 230 -1152
2022-01-24 17:11:00 GMT 51.397675 7.086716 3,700 259 227 -1152
2022-01-24 17:10:57 GMT 51.397675 7.086716 3,750 259 227 -1152
2022-01-24 17:10:54 GMT 51.398418 7.092514 3,800 259 228 -1152
2022-01-24 17:10:51 GMT 51.399815 7.103806 3,875 259 228 -1152
2022-01-24 17:10:48 GMT 51.400188 7.107162 4,125 259 230 -1152
2022-01-24 17:10:45 GMT 51.400188 7.107162 4,125 259 230 -1152
2022-01-24 17:10:42 GMT 51.400818 7.112089 4,025 259 229 -1152
2022-01-24 17:10:38 GMT 51.401676 7.119141 4,075 259 230 -1152
2022-01-24 17:10:35 GMT 51.402283 7.124188 4,200 259 232 -1216
2022-01-24 17:10:32 GMT 51.402748 7.127914 4,225 259 232 -1216
2022-01-24 17:10:29 GMT 51.403492 7.133942 4,275 259 231 -1152
2022-01-24 17:10:26 GMT 51.404160 7.139629 4,450 259 232 -1152
2022-01-24 17:10:23 GMT 51.404938 7.145641 4,375 259 232 -1216
2022-01-24 17:10:19 GMT 51.405487 7.150392 4,475 259 232 -1216
2022-01-24 17:10:15 GMT 51.406380 7.157516 4,550 259 232 -1344
2022-01-24 17:10:12 GMT 51.406952 7.161898 4,650 259 232 -1344
2022-01-24 17:10:09 GMT 51.407730 7.168350 4,925 260 231 -1600
2022-01-24 17:10:03 GMT 51.409195 7.180159 5,150 259 234 -1344
2022-01-24 17:10:00 GMT 51.409515 7.182832 5,000 259 230 -2048
2022-01-24 17:09:57 GMT 51.410019 7.186840 5,350 259 230 -1728
2022-01-24 17:09:54 GMT 51.410889 7.193521 5,100 259 230 -2048
2022-01-24 17:09:51 GMT 51.411312 7.197189 5,300 259 230 -1856
2022-01-24 17:09:48 GMT 51.412170 7.204210 5,625 260 231 -1600
2022-01-24 17:09:44 GMT 51.412720 7.208739 5,475 259 230 -1664
2022-01-24 17:09:41 GMT 51.413406 7.214232 5,525 260 231 -1600
2022-01-24 17:09:38 GMT 51.414139 7.220245 5,575 259 231 -1600
2022-01-24 17:09:34 GMT 51.414917 7.226851 5,725 259 232 -1600
2022-01-24 17:09:31 GMT 51.415504 7.231369 6,425 259 234 -1344
2022-01-24 17:09:27 GMT 51.417114 7.244370 5,850 260 233 -1408
2022-01-24 17:09:24 GMT 51.417114 7.244370 5,925 259 234 -1344
2022-01-24 17:09:21 GMT 51.417435 7.247265 5,975 259 234 -1344
2022-01-24 17:09:18 GMT 51.418156 7.253036 6,075 259 234 -1536
2022-01-24 17:09:15 GMT 51.418945 7.259513 6,150 260 235 -1536
2022-01-24 17:09:12 GMT 51.419556 7.264633 6,425 259 234 -1408
2022-01-24 17:09:09 GMT 51.420090 7.269089 6,375 260 234 -1408
2022-01-24 17:09:06 GMT 51.420731 7.274508 6,400 259 234 -1408
2022-01-24 17:09:03 GMT 51.421326 7.279333 6,425 259 234 -1408
2022-01-24 17:08:59 GMT 51.423370 7.296524 6,550 259 234 -1344
2022-01-24 17:08:56 GMT 51.423882 7.300720 6,650 260 234 -1344
2022-01-24 17:08:51 GMT 51.423882 7.300720 6,725 260 233 -1344
2022-01-24 17:08:47 GMT 51.424576 7.306502 6,925 259 233 -1216
2022-01-24 17:08:44 GMT 51.425232 7.311478 6,875 259 234 -1152
2022-01-24 17:08:41 GMT 51.425858 7.316672 6,925 259 234 -960
2022-01-24 17:08:37 GMT 51.426628 7.323151 6,975 260 236 -512
2022-01-24 17:08:34 GMT 51.427280 7.328644 7,000 259 238 -192
2022-01-24 17:08:31 GMT 51.427887 7.333450 7,000 259 239 -128
2022-01-24 17:08:27 GMT 51.428909 7.341843 7,000 260 246 0
2022-01-24 17:08:24 GMT 51.429329 7.345352 7,000 260 246 0
2022-01-24 17:08:21 GMT 51.430820 7.357483 7,000 260 246 0
2022-01-24 17:08:18 GMT 51.430820 7.357483 7,000 259 248 0
2022-01-24 17:08:15 GMT 51.431442 7.362770 7,000 259 249 0
2022-01-24 17:08:12 GMT 51.432266 7.369377 7,000 259 251 64
2022-01-24 17:08:08 GMT 51.433640 7.380437 7,000 259 260 -128
2022-01-24 17:08:05 GMT 51.433640 7.380437 7,000 259 260 -128
2022-01-24 17:08:02 GMT 51.434311 7.386093 7,000 259 260 -128
2022-01-24 17:07:59 GMT 51.435013 7.391795 7,025 260 265 -448
2022-01-24 17:07:56 GMT 51.435837 7.398624 7,050 260 270 -960
2022-01-24 17:07:53 GMT 51.436268 7.402191 7,050 260 270 -960
2022-01-24 17:07:50 GMT 51.437073 7.408868 7,275 260 270 -960
2022-01-24 17:07:47 GMT 51.437714 7.414361 7,200 259 272 -960
2022-01-24 17:07:44 GMT 51.438583 7.421413 7,225 260 272 -960
2022-01-24 17:07:40 GMT 51.439480 7.429047 7,300 259 277 -960
2022-01-24 17:07:37 GMT 51.440269 7.435455 7,375 260 278 -960
2022-01-24 17:07:34 GMT 51.440968 7.441101 7,400 260 279 -960
2022-01-24 17:07:31 GMT 51.441971 7.449621 7,450 260 281 -960
2022-01-24 17:07:27 GMT 51.442692 7.455673 7,525 260 284 -960
2022-01-24 17:07:24 GMT 51.444412 7.469864 7,600 260 303 -1728
2022-01-24 17:07:19 GMT 51.444412 7.469864 7,600 260 288 -960
2022-01-24 17:07:16 GMT 51.445621 7.479935 7,750 259 306 -2240
2022-01-24 17:07:13 GMT 51.446041 7.483292 7,750 260 292 -960
2022-01-24 17:07:09 GMT 51.447300 7.493515 7,775 260 294 -960
2022-01-24 17:07:06 GMT 51.447968 7.499134 7,850 259 297 -960
2022-01-24 17:07:03 GMT 51.448696 7.505341 8,100 260 299 -960
2022-01-24 17:06:59 GMT 51.449951 7.515793 7,975 260 302 -1344
2022-01-24 17:06:56 GMT 51.450745 7.522202 8,050 260 304 -1856
2022-01-24 17:06:53 GMT 51.451309 7.527045 8,050 260 304 -1856
2022-01-24 17:06:50 GMT 51.452419 7.536163 8,225 260 305 -1920
2022-01-24 17:06:46 GMT 51.453232 7.543005 8,425 260 306 -1920
2022-01-24 17:06:43 GMT 51.454056 7.549909 8,425 260 306 -1920
2022-01-24 17:06:38 GMT 51.455444 7.561340 8,625 260 308 -1920
2022-01-24 17:06:35 GMT 51.456795 7.572784 8,725 260 308 -1920
2022-01-24 17:06:32 GMT 51.456795 7.572784 8,900 260 309 -1920
2022-01-24 17:06:29 GMT 51.457809 7.581457 8,925 260 310 -1920
2022-01-24 17:06:26 GMT 51.459595 7.596601 9,025 260 310 -1920
2022-01-24 17:06:23 GMT 51.459595 7.596601 9,200 260 309 -1920
2022-01-24 17:06:20 GMT 51.460522 7.604446 9,225 260 308 -1920
2022-01-24 17:06:17 GMT 51.460968 7.608478 9,350 260 307 -2112
2022-01-24 17:06:14 GMT 51.461700 7.614565 9,475 260 307 -2304
2022-01-24 17:06:11 GMT 51.462479 7.621023 9,475 260 307 -2304
2022-01-24 17:06:08 GMT 51.463303 7.628149 9,650 259 306 -2240
2022-01-24 17:06:05 GMT 51.464245 7.635727 9,975 260 311 -640
2022-01-24 17:06:02 GMT 51.464893 7.641144 9,825 260 307 -1984
2022-01-24 17:05:59 GMT 51.465641 7.647324 9,950 260 309 -1088
2022-01-24 17:05:56 GMT 51.467377 7.661999 9,975 260 311 -704
2022-01-24 17:05:53 GMT 51.468704 7.673134 10,000 260 312 -192
2022-01-24 17:05:49 GMT 51.468704 7.673134 10,000 260 313 0
2022-01-24 17:05:46 GMT 51.469177 7.677231 10,000 260 313 0
2022-01-24 17:05:43 GMT 51.469986 7.684046 10,000 260 313 0
2022-01-24 17:05:39 GMT 51.471878 7.700043 10,000 260 313 0
2022-01-24 17:05:36 GMT 51.471878 7.700043 10,000 260 313 0
2022-01-24 17:05:33 GMT 51.474018 7.718277 10,000 260 312 0
2022-01-24 17:05:29 GMT 51.474018 7.718277 10,000 260 312 0
2022-01-24 17:05:26 GMT 51.474579 7.722778 10,000 260 312 0
2022-01-24 17:05:23 GMT 51.475414 7.730103 10,000 260 312 0
2022-01-24 17:05:19 GMT 51.476761 7.741427 10,000 260 313 0
2022-01-24 17:05:15 GMT 51.477539 7.747885 10,000 260 315 0
2022-01-24 17:05:12 GMT 51.478210 7.753677 10,000 260 320 0
2022-01-24 17:05:08 GMT 51.479828 7.767260 10,000 260 321 -64
2022-01-24 17:05:05 GMT 51.480209 7.770615 10,000 260 324 64
2022-01-24 17:05:02 GMT 51.481384 7.780473 10,000 260 323 0
2022-01-24 17:04:59 GMT 51.481979 7.785645 10,000 260 324 64
2022-01-24 17:04:56 GMT 51.482723 7.792206 10,000 260 324 0
2022-01-24 17:04:53 GMT 51.484634 7.808380 10,000 260 324 0
2022-01-24 17:04:49 GMT 51.484634 7.808380 10,000 260 324 0
2022-01-24 17:04:46 GMT 51.485519 7.815933 10,000 260 324 -64
2022-01-24 17:04:43 GMT 51.486465 7.823973 10,000 260 324 0
2022-01-24 17:04:40 GMT 51.487194 7.830124 10,000 260 324 0
2022-01-24 17:04:37 GMT 51.488964 7.845230 10,000 260 324 0
2022-01-24 17:04:34 GMT 51.488964 7.845230 10,000 260 324 0
2022-01-24 17:04:31 GMT 51.490768 7.860718 10,000 260 324 0
2022-01-24 17:04:27 GMT 51.490768 7.860718 10,000 260 324 0
2022-01-24 17:04:24 GMT 51.491776 7.869329 10,000 260 324 0
2022-01-24 17:04:21 GMT 51.492462 7.874896 10,000 260 324 0
2022-01-24 17:04:17 GMT 51.493710 7.885895 10,000 260 324 0
2022-01-24 17:04:13 GMT 51.494568 7.893009 10,000 260 324 0
2022-01-24 17:04:10 GMT 51.495480 7.901001 10,000 260 325 64
2022-01-24 17:04:07 GMT 51.496132 7.906723 10,000 260 324 0
2022-01-24 17:04:04 GMT 51.497108 7.915192 10,000 260 325 0
2022-01-24 17:04:01 GMT 51.498138 7.924038 10,000 260 325 -64
2022-01-24 17:03:58 GMT 51.498974 7.931290 10,000 260 325 64
2022-01-24 17:03:55 GMT 51.499622 7.936859 10,000 260 325 0
2022-01-24 17:03:52 GMT 51.500366 7.943573 10,000 260 325 -64
2022-01-24 17:03:49 GMT 51.501205 7.950687 10,000 260 325 -64
2022-01-24 17:03:46 GMT 51.502045 7.957764 10,000 260 325 -64
2022-01-24 17:03:43 GMT 51.502930 7.965393 10,000 260 325 64
2022-01-24 17:03:40 GMT 51.503632 7.971546 10,000 260 325 64
2022-01-24 17:03:37 GMT 51.504650 7.980576 10,000 260 325 64
2022-01-24 17:03:34 GMT 51.505348 7.986221 10,000 260 325 0
2022-01-24 17:03:31 GMT 51.506012 7.992257 10,000 260 325 -64
2022-01-24 17:03:28 GMT 51.507019 8.000868 10,000 260 325 0
2022-01-24 17:03:25 GMT 51.507797 8.007549 10,000 260 325 0
2022-01-24 17:03:22 GMT 51.508610 8.014679 10,000 260 325 0
2022-01-24 17:03:19 GMT 51.509399 8.021578 10,000 260 325 0
2022-01-24 17:03:16 GMT 51.510315 8.029373 10,000 260 325 64
2022-01-24 17:03:13 GMT 51.511185 8.036870 10,000 260 325 64
2022-01-24 17:03:10 GMT 51.512146 8.045481 10,000 260 325 0
2022-01-24 17:03:07 GMT 51.512936 8.052444 10,000 260 326 -64
2022-01-24 17:03:04 GMT 51.513542 8.057327 10,000 260 326 0
2022-01-24 17:03:01 GMT 51.514343 8.064484 10,000 260 326 0
2022-01-24 17:02:58 GMT 51.515171 8.071594 10,000 260 326 0
2022-01-24 17:02:55 GMT 51.515991 8.078737 10,000 260 326 64
2022-01-24 17:02:52 GMT 51.516861 8.086309 10,000 260 326 64
2022-01-24 17:02:49 GMT 51.517456 8.091802 10,000 260 326 -64
2022-01-24 17:02:45 GMT 51.518692 8.102491 10,000 260 326 0
2022-01-24 17:02:42 GMT 51.519829 8.112488 10,000 260 326 0
2022-01-24 17:02:38 GMT 51.520477 8.118210 10,000 260 326 0
2022-01-24 17:02:35 GMT 51.522202 8.133392 10,000 260 326 0
2022-01-24 17:02:32 GMT 51.522202 8.133392 10,000 260 326 0
2022-01-24 17:02:29 GMT 51.523178 8.141937 10,000 260 326 0
2022-01-24 17:02:25 GMT 51.524002 8.148960 10,000 260 326 -64
2022-01-24 17:02:22 GMT 51.524872 8.156681 10,000 260 326 0
2022-01-24 17:02:19 GMT 51.525555 8.162689 10,000 260 326 0
2022-01-24 17:02:15 GMT 51.526749 8.172863 10,000 260 326 -64
2022-01-24 17:02:12 GMT 51.527664 8.181251 10,000 260 326 0
2022-01-24 17:02:09 GMT 51.528351 8.187041 10,000 260 326 -64
2022-01-24 17:02:05 GMT 51.529541 8.197582 10,000 260 326 0
2022-01-24 17:02:02 GMT 51.530365 8.205006 10,000 260 326 0
2022-01-24 17:01:59 GMT 51.531231 8.212280 10,000 260 326 0
2022-01-24 17:01:55 GMT 51.532257 8.221664 10,000 260 326 0
2022-01-24 17:01:52 GMT 51.533142 8.229294 10,000 260 326 0
2022-01-24 17:01:49 GMT 51.533794 8.234863 10,000 260 326 0
2022-01-24 17:01:45 GMT 51.535126 8.247021 10,000 260 326 0
2022-01-24 17:01:41 GMT 51.535995 8.254518 10,000 260 326 -64
2022-01-24 17:01:38 GMT 51.536865 8.262238 10,000 260 327 0
2022-01-24 17:01:35 GMT 51.537659 8.269424 10,000 260 327 64
2022-01-24 17:01:32 GMT 51.539246 8.283246 10,000 260 327 64
2022-01-24 17:01:29 GMT 51.539246 8.283246 10,000 260 327 0
2022-01-24 17:01:26 GMT 51.540497 8.294220 10,000 260 327 -64
2022-01-24 17:01:23 GMT 51.540756 8.296608 10,000 260 327 0
2022-01-24 17:01:20 GMT 51.541489 8.303214 10,000 260 327 0
2022-01-24 17:01:16 GMT 51.542732 8.314209 10,000 260 327 64
2022-01-24 17:01:13 GMT 51.543869 8.324222 10,000 260 327 0
2022-01-24 17:01:10 GMT 51.545288 8.336619 10,000 260 327 0
2022-01-24 17:01:06 GMT 51.545288 8.336619 10,000 260 327 0
2022-01-24 17:01:03 GMT 51.546082 8.343887 10,000 260 327 -64
2022-01-24 17:01:00 GMT 51.547028 8.351985 10,000 260 327 0
2022-01-24 17:00:57 GMT 51.548218 8.362526 10,000 260 327 0
2022-01-24 17:00:54 GMT 51.548878 8.368683 10,000 260 327 0
2022-01-24 17:00:51 GMT 51.549500 8.373957 10,000 260 327 0
2022-01-24 17:00:48 GMT 51.550274 8.381119 10,000 260 327 0
2022-01-24 17:00:44 GMT 51.552155 8.397860 10,000 260 327 -64
2022-01-24 17:00:41 GMT 51.552155 8.397860 10,000 260 327 -64
2022-01-24 17:00:38 GMT 51.552925 8.404999 10,000 260 327 0
2022-01-24 17:00:34 GMT 51.553997 8.414383 10,000 260 327 0
2022-01-24 17:00:31 GMT 51.554764 8.421689 10,000 260 327 64
2022-01-24 17:00:28 GMT 51.555580 8.428726 10,000 260 327 0
2022-01-24 17:00:24 GMT 51.556686 8.438910 10,000 260 327 0
2022-01-24 17:00:21 GMT 51.557487 8.446045 10,000 260 327 -64
2022-01-24 17:00:17 GMT 51.558380 8.453905 10,000 260 327 0
2022-01-24 17:00:14 GMT 51.559570 8.464446 10,000 260 327 0
2022-01-24 17:00:11 GMT 51.560211 8.470385 10,000 260 327 0
2022-01-24 17:00:08 GMT 51.560760 8.475136 10,000 260 327 64
2022-01-24 17:00:05 GMT 51.561539 8.482132 10,000 260 327 0
2022-01-24 17:00:02 GMT 51.562729 8.493100 10,000 260 327 0
2022-01-24 16:59:59 GMT 51.563507 8.499929 10,000 260 327 0
2022-01-24 16:59:56 GMT 51.564053 8.505173 10,000 260 327 0
2022-01-24 16:59:53 GMT 51.564743 8.511435 10,000 260 327 0
2022-01-24 16:59:50 GMT 51.565796 8.520937 10,000 260 327 -64
2022-01-24 16:59:45 GMT 51.566986 8.531478 10,000 260 327 0
2022-01-24 16:59:42 GMT 51.567776 8.538666 10,000 260 327 0
2022-01-24 16:59:39 GMT 51.568520 8.545380 10,000 260 327 0
2022-01-24 16:59:35 GMT 51.569504 8.554490 10,000 260 327 0
2022-01-24 16:59:32 GMT 51.570374 8.562135 10,000 260 327 0
2022-01-24 16:59:28 GMT 51.571747 8.574606 10,000 260 327 0
2022-01-24 16:59:24 GMT 51.572758 8.583679 10,000 260 327 64
2022-01-24 16:59:21 GMT 51.573177 8.587494 10,000 260 327 64
2022-01-24 16:59:18 GMT 51.573944 8.594501 10,000 260 328 0
2022-01-24 16:59:15 GMT 51.574852 8.602829 10,000 260 328 0
2022-01-24 16:59:12 GMT 51.576508 8.617587 10,000 261 328 0
2022-01-24 16:59:09 GMT 51.576508 8.617587 10,000 261 328 0
2022-01-24 16:59:05 GMT 51.577560 8.627311 10,000 261 328 0
2022-01-24 16:59:02 GMT 51.578201 8.633101 10,000 261 328 0
2022-01-24 16:58:58 GMT 51.579254 8.642529 10,000 261 328 0
2022-01-24 16:58:55 GMT 51.580112 8.650818 10,000 261 328 0
2022-01-24 16:58:52 GMT 51.580902 8.657969 10,000 261 328 64
2022-01-24 16:58:49 GMT 51.581772 8.665763 10,000 261 328 0
2022-01-24 16:58:46 GMT 51.583279 8.679733 10,000 261 328 0
2022-01-24 16:58:43 GMT 51.583279 8.679733 10,000 261 328 0
2022-01-24 16:58:40 GMT 51.584381 8.689666 10,000 261 328 0
2022-01-24 16:58:37 GMT 51.585022 8.695604 10,000 261 328 0
2022-01-24 16:58:32 GMT 51.586395 8.708075 10,000 261 328 -64
2022-01-24 16:58:29 GMT 51.588211 8.724747 10,000 261 328 0
2022-01-24 16:58:25 GMT 51.588211 8.724747 10,000 261 328 0
2022-01-24 16:58:21 GMT 51.589890 8.740082 10,000 261 328 -64
2022-01-24 16:58:18 GMT 51.589890 8.740082 10,000 261 328 0
2022-01-24 16:58:15 GMT 51.590912 8.749771 10,000 261 328 0
2022-01-24 16:58:12 GMT 51.591656 8.756485 10,000 261 328 0
2022-01-24 16:58:07 GMT 51.592758 8.766644 10,000 261 328 0
2022-01-24 16:58:04 GMT 51.593567 8.773956 10,000 261 328 0
2022-01-24 16:58:01 GMT 51.594170 8.779678 10,000 261 328 0
2022-01-24 16:57:58 GMT 51.595055 8.788071 10,000 261 328 0
2022-01-24 16:57:55 GMT 51.595798 8.795090 10,000 261 328 0
2022-01-24 16:57:52 GMT 51.596638 8.802795 10,000 261 328 0
2022-01-24 16:57:49 GMT 51.597244 8.808517 10,000 261 329 0
2022-01-24 16:57:46 GMT 51.598175 8.817215 10,000 261 329 0
2022-01-24 16:57:42 GMT 51.599197 8.826828 10,000 261 329 0
2022-01-24 16:57:39 GMT 51.600082 8.835086 10,000 261 329 0
2022-01-24 16:57:36 GMT 51.601387 8.847122 10,000 261 329 -64
2022-01-24 16:57:33 GMT 51.601387 8.847122 10,000 261 329 -64
2022-01-24 16:57:30 GMT 51.602505 8.857727 10,000 261 329 -64
2022-01-24 16:57:27 GMT 51.602924 8.861542 10,000 261 329 0
2022-01-24 16:57:24 GMT 51.603882 8.870718 10,000 261 329 64
2022-01-24 16:57:21 GMT 51.604553 8.876953 10,000 261 328 -64
2022-01-24 16:57:17 GMT 51.605762 8.888550 10,000 261 328 -64
2022-01-24 16:57:14 GMT 51.606461 8.895264 10,000 261 328 -64
2022-01-24 16:57:10 GMT 51.607300 8.902969 10,000 261 328 64
2022-01-24 16:57:07 GMT 51.608414 8.914069 10,000 261 328 64
2022-01-24 16:57:04 GMT 51.609009 8.919562 10,000 261 328 0
2022-01-24 16:57:01 GMT 51.609604 8.925427 10,000 261 328 0
2022-01-24 16:56:58 GMT 51.610233 8.931580 10,000 261 328 0
2022-01-24 16:56:55 GMT 51.610931 8.938599 10,000 261 328 0
2022-01-24 16:56:52 GMT 51.611664 8.945840 10,000 261 328 0
2022-01-24 16:56:49 GMT 51.612465 8.953857 10,000 259 329 0
2022-01-24 16:56:46 GMT 51.613220 8.961281 10,000 259 329 0
2022-01-24 16:56:43 GMT 51.613998 8.968852 10,000 260 328 0
2022-01-24 16:56:40 GMT 51.614731 8.975756 10,000 260 328 0
2022-01-24 16:56:37 GMT 51.616928 8.993943 10,000 259 329 64
2022-01-24 16:56:33 GMT 51.616928 8.993943 10,000 259 329 64
2022-01-24 16:56:29 GMT 51.618073 9.002554 10,000 259 329 0
2022-01-24 16:56:26 GMT 51.619122 9.010696 10,000 259 329 -64
2022-01-24 16:56:22 GMT 51.620102 9.018250 10,000 259 329 0
2022-01-24 16:56:18 GMT 51.621220 9.027023 10,000 259 329 64
2022-01-24 16:56:15 GMT 51.622238 9.034993 10,000 259 329 0
2022-01-24 16:56:12 GMT 51.623314 9.043274 10,000 259 329 0
2022-01-24 16:56:08 GMT 51.624382 9.051819 10,000 259 329 0
2022-01-24 16:56:05 GMT 51.625443 9.060083 10,000 259 329 0
2022-01-24 16:56:00 GMT 51.628109 9.080734 10,000 259 329 0
2022-01-24 16:55:57 GMT 51.628109 9.080734 10,000 259 329 0
2022-01-24 16:55:54 GMT 51.628574 9.084549 10,000 259 329 0
2022-01-24 16:55:51 GMT 51.629688 9.093170 10,000 259 329 0
2022-01-24 16:55:48 GMT 51.630753 9.101431 10,000 259 329 0
2022-01-24 16:55:45 GMT 51.631554 9.107666 10,000 259 329 0
2022-01-24 16:55:41 GMT 51.632812 9.117539 10,000 259 329 0
2022-01-24 16:55:38 GMT 51.633636 9.124220 10,000 259 329 0
2022-01-24 16:55:35 GMT 51.634720 9.132614 10,000 259 329 0
2022-01-24 16:55:30 GMT 51.636383 9.145599 10,000 259 329 0
2022-01-24 16:55:27 GMT 51.637802 9.157104 10,000 259 329 0
2022-01-24 16:55:24 GMT 51.637802 9.157104 10,000 259 329 0
2022-01-24 16:55:20 GMT 51.640045 9.174401 10,000 259 330 0
2022-01-24 16:55:17 GMT 51.640045 9.174401 10,000 259 330 -64
2022-01-24 16:55:14 GMT 51.641006 9.182121 10,000 259 330 -64
2022-01-24 16:55:10 GMT 51.642166 9.191208 10,000 259 330 0
2022-01-24 16:55:07 GMT 51.643143 9.198914 10,000 259 331 64
2022-01-24 16:55:04 GMT 51.644123 9.206543 10,000 259 331 64
2022-01-24 16:55:01 GMT 51.644867 9.212494 10,000 259 331 0
2022-01-24 16:54:57 GMT 51.645996 9.221612 10,000 259 331 0
2022-01-24 16:54:53 GMT 51.647232 9.231336 10,000 259 331 0
2022-01-24 16:54:50 GMT 51.648331 9.239799 10,000 259 331 0
2022-01-24 16:54:47 GMT 51.649151 9.246292 10,000 259 331 0
2022-01-24 16:54:44 GMT 51.650299 9.255462 10,000 259 332 0
2022-01-24 16:54:40 GMT 51.651398 9.264147 10,000 259 332 0
2022-01-24 16:54:37 GMT 51.652634 9.273871 10,000 259 332 0
2022-01-24 16:54:34 GMT 51.653366 9.279661 10,000 259 332 -64
2022-01-24 16:54:31 GMT 51.654411 9.287872 10,000 259 332 -64
2022-01-24 16:54:27 GMT 51.655289 9.295102 10,000 259 331 64
2022-01-24 16:54:24 GMT 51.656597 9.305267 10,000 259 331 64
2022-01-24 16:54:21 GMT 51.657394 9.311581 10,000 259 331 0
2022-01-24 16:54:17 GMT 51.658367 9.319534 10,000 259 331 0
2022-01-24 16:54:13 GMT 51.659409 9.327986 10,000 259 331 64
2022-01-24 16:54:10 GMT 51.660507 9.336523 10,000 259 331 0
2022-01-24 16:54:07 GMT 51.661377 9.343427 10,000 259 331 -64
2022-01-24 16:54:03 GMT 51.662842 9.355081 10,000 259 331 0
2022-01-24 16:53:59 GMT 51.663815 9.363098 10,000 259 331 0
2022-01-24 16:53:56 GMT 51.664627 9.369334 10,000 259 331 0
2022-01-24 16:53:53 GMT 51.666000 9.380493 10,000 259 331 64
2022-01-24 16:53:50 GMT 51.666607 9.385529 10,000 259 331 -64
2022-01-24 16:53:47 GMT 51.667492 9.392319 10,000 259 331 -64
2022-01-24 16:53:43 GMT 51.668701 9.402008 10,000 259 331 0
2022-01-24 16:53:40 GMT 51.669773 9.410706 10,000 259 331 0
2022-01-24 16:53:37 GMT 51.670517 9.416504 10,000 259 331 0
2022-01-24 16:53:34 GMT 51.671631 9.425676 10,000 259 331 0
2022-01-24 16:53:31 GMT 51.672134 9.429536 10,000 259 331 0
2022-01-24 16:53:28 GMT 51.673096 9.437330 10,000 259 331 64
2022-01-24 16:53:25 GMT 51.674194 9.446564 10,000 259 331 64
2022-01-24 16:53:22 GMT 51.674801 9.451370 10,000 259 331 -64
2022-01-24 16:53:19 GMT 51.676025 9.461233 10,000 259 331 -64
2022-01-24 16:53:16 GMT 51.676800 9.467545 10,000 259 331 -64
2022-01-24 16:53:13 GMT 51.677856 9.475931 10,000 259 330 0
2022-01-24 16:53:10 GMT 51.678360 9.479791 10,000 259 330 0
2022-01-24 16:53:07 GMT 51.679688 9.490814 10,000 259 326 0
2022-01-24 16:53:03 GMT 51.680618 9.498444 10,000 259 323 64
2022-01-24 16:53:00 GMT 51.681549 9.505997 10,000 259 318 64
2022-01-24 16:52:57 GMT 51.682297 9.512082 10,000 259 315 0
2022-01-24 16:52:54 GMT 51.682995 9.518051 10,000 259 311 64
2022-01-24 16:52:51 GMT 51.684174 9.527670 10,000 259 309 0
2022-01-24 16:52:48 GMT 51.685822 9.541181 10,000 259 308 0
2022-01-24 16:52:45 GMT 51.686531 9.547043 10,000 259 308 0
2022-01-24 16:52:42 GMT 51.686531 9.547043 10,000 259 308 0
2022-01-24 16:52:39 GMT 51.687416 9.554214 10,000 259 308 0
2022-01-24 16:52:36 GMT 51.688068 9.559631 10,000 259 308 0
2022-01-24 16:52:32 GMT 51.689137 9.568634 10,000 259 308 0
2022-01-24 16:52:29 GMT 51.690022 9.575882 10,000 259 308 0
2022-01-24 16:52:26 GMT 51.690811 9.582676 10,000 260 308 0
2022-01-24 16:52:22 GMT 51.691837 9.591293 10,000 259 308 0
2022-01-24 16:52:18 GMT 51.692955 9.600296 10,000 259 309 0
2022-01-24 16:52:15 GMT 51.693787 9.607024 10,000 259 309 0
2022-01-24 16:52:12 GMT 51.694611 9.613334 10,000 259 309 -64
2022-01-24 16:52:08 GMT 51.695755 9.622242 10,000 259 309 0
2022-01-24 16:52:05 GMT 51.696533 9.628700 10,000 260 308 0
2022-01-24 16:52:02 GMT 51.697266 9.635010 10,000 260 308 0
2022-01-24 16:51:59 GMT 51.698181 9.643101 10,000 261 308 0
2022-01-24 16:51:56 GMT 51.699055 9.651566 10,000 261 307 0
2022-01-24 16:51:52 GMT 51.700562 9.667449 10,000 262 307 0
2022-01-24 16:51:49 GMT 51.700562 9.667449 10,000 263 306 0
2022-01-24 16:51:45 GMT 51.701157 9.674724 10,000 264 307 0
2022-01-24 16:51:42 GMT 51.701706 9.682073 10,000 265 306 0
2022-01-24 16:51:38 GMT 51.702209 9.690238 10,000 265 306 0
2022-01-24 16:51:34 GMT 51.702732 9.698792 10,000 265 306 -64
2022-01-24 16:51:31 GMT 51.703197 9.706116 10,000 265 306 -64
2022-01-24 16:51:27 GMT 51.703857 9.716516 10,000 265 306 0
2022-01-24 16:51:24 GMT 51.704266 9.723358 10,000 265 307 0
2022-01-24 16:51:21 GMT 51.704773 9.730917 10,000 265 307 0
2022-01-24 16:51:17 GMT 51.705414 9.741087 10,000 265 307 0
2022-01-24 16:51:14 GMT 51.705780 9.746580 10,000 265 307 64
2022-01-24 16:51:11 GMT 51.706081 9.751587 10,000 265 307 64
2022-01-24 16:51:08 GMT 51.706547 9.758682 10,000 264 307 -64
2022-01-24 16:51:05 GMT 51.706966 9.765167 10,000 264 307 -64
2022-01-24 16:51:01 GMT 51.707611 9.774789 10,000 265 307 0
2022-01-24 16:50:57 GMT 51.708130 9.782486 10,000 265 307 64
2022-01-24 16:50:54 GMT 51.708691 9.791565 10,000 265 307 64
2022-01-24 16:50:51 GMT 51.708984 9.796390 10,000 265 307 -64
2022-01-24 16:50:48 GMT 51.709576 9.805222 10,000 265 307 0
2022-01-24 16:50:45 GMT 51.710365 9.817810 10,000 265 306 64
2022-01-24 16:50:42 GMT 51.710907 9.826528 10,000 265 306 0
2022-01-24 16:50:39 GMT 51.710907 9.826528 10,000 265 306 64
2022-01-24 16:50:36 GMT 51.711273 9.832021 10,000 265 306 0
2022-01-24 16:50:33 GMT 51.712090 9.845200 10,000 265 306 -64
2022-01-24 16:50:30 GMT 51.712090 9.845200 10,000 265 306 -64
2022-01-24 16:50:27 GMT 51.712551 9.852448 10,000 265 306 0
2022-01-24 16:50:24 GMT 51.713470 9.867282 10,000 265 306 0
2022-01-24 16:50:21 GMT 51.713470 9.867282 10,000 265 306 0
2022-01-24 16:50:16 GMT 51.714066 9.876561 10,000 265 306 0
2022-01-24 16:50:13 GMT 51.714554 9.884186 10,000 265 306 0
2022-01-24 16:50:10 GMT 51.714928 9.889679 10,000 265 306 0
2022-01-24 16:50:06 GMT 51.715714 9.901948 10,000 265 306 0
2022-01-24 16:50:03 GMT 51.715988 9.906476 10,000 265 306 0
2022-01-24 16:50:00 GMT 51.716492 9.913751 10,000 265 306 0
2022-01-24 16:49:56 GMT 51.717487 9.929657 10,000 265 306 0
2022-01-24 16:49:53 GMT 51.717487 9.929657 10,000 265 306 0
2022-01-24 16:49:49 GMT 51.717953 9.936676 10,000 265 306 0
2022-01-24 16:49:46 GMT 51.718460 9.944631 10,000 265 306 0
2022-01-24 16:49:43 GMT 51.719009 9.953688 10,000 265 306 0
2022-01-24 16:49:39 GMT 51.719398 9.959641 10,000 265 306 0
2022-01-24 16:49:36 GMT 51.720428 9.975512 10,000 265 306 0
2022-01-24 16:49:33 GMT 51.720428 9.975512 10,000 265 306 0
2022-01-24 16:49:30 GMT 51.720795 9.981461 10,000 265 306 0
2022-01-24 16:49:27 GMT 51.721161 9.987166 10,000 265 306 0
2022-01-24 16:49:24 GMT 51.721710 9.995554 10,000 265 307 0
2022-01-24 16:49:21 GMT 51.722050 10.000534 10,000 265 307 0
2022-01-24 16:49:18 GMT 51.722656 10.010529 10,000 265 307 0
2022-01-24 16:49:13 GMT 51.723221 10.019160 10,000 265 307 -64
2022-01-24 16:49:10 GMT 51.723679 10.026286 10,000 265 307 64
2022-01-24 16:49:07 GMT 51.724136 10.033710 10,000 265 307 0
2022-01-24 16:49:04 GMT 51.724609 10.041275 10,000 265 308 -64
2022-01-24 16:49:00 GMT 51.725098 10.048333 10,000 265 308 -64
2022-01-24 16:48:57 GMT 51.725590 10.056076 10,000 265 308 64
2022-01-24 16:48:54 GMT 51.726055 10.064316 10,000 265 308 0
2022-01-24 16:48:51 GMT 51.726517 10.071122 10,000 265 308 0
2022-01-24 16:48:48 GMT 51.726845 10.077057 10,000 265 308 0
2022-01-24 16:48:45 GMT 51.727341 10.084855 10,000 265 308 0
2022-01-24 16:48:42 GMT 51.727684 10.090637 10,000 265 308 0
2022-01-24 16:48:39 GMT 51.728256 10.099479 10,000 265 308 0
2022-01-24 16:48:34 GMT 51.728943 10.110391 10,000 265 308 64
2022-01-24 16:48:28 GMT 51.729675 10.122268 10,000 265 307 0
2022-01-24 16:48:25 GMT 51.730198 10.130005 10,000 265 307 0
2022-01-24 16:48:22 GMT 51.730499 10.135036 10,000 265 307 0
2022-01-24 16:48:18 GMT 51.731277 10.147581 10,000 265 308 0
2022-01-24 16:48:14 GMT 51.731686 10.154419 10,000 265 308 0
2022-01-24 16:48:11 GMT 51.732056 10.160423 10,000 265 308 0
2022-01-24 16:48:08 GMT 51.732513 10.167847 10,000 265 308 0
2022-01-24 16:48:05 GMT 51.733063 10.176977 10,000 265 308 0
2022-01-24 16:48:02 GMT 51.733337 10.181580 10,000 265 308 0
2022-01-24 16:47:59 GMT 51.733780 10.188446 10,000 265 308 0
2022-01-24 16:47:56 GMT 51.734154 10.194702 10,000 265 308 0
2022-01-24 16:47:53 GMT 51.734619 10.202587 10,000 265 308 0
2022-01-24 16:47:50 GMT 51.735085 10.210342 10,000 265 308 0
2022-01-24 16:47:46 GMT 51.736015 10.225983 10,000 265 308 0
2022-01-24 16:47:43 GMT 51.736015 10.225983 10,000 265 308 0
2022-01-24 16:47:40 GMT 51.736450 10.233616 10,000 265 308 0
2022-01-24 16:47:36 GMT 51.736954 10.241782 10,000 265 308 0
2022-01-24 16:47:33 GMT 51.737457 10.250702 10,000 265 308 -64
2022-01-24 16:47:30 GMT 51.737732 10.255663 10,000 265 308 -64
2022-01-24 16:47:27 GMT 51.738064 10.261612 10,000 265 309 0
2022-01-24 16:47:24 GMT 51.738556 10.269544 10,000 265 309 0
2022-01-24 16:47:21 GMT 51.738876 10.275038 10,000 265 309 0
2022-01-24 16:47:18 GMT 51.739334 10.283055 10,000 265 309 -64
2022-01-24 16:47:15 GMT 51.740067 10.295639 10,000 265 288 64
2022-01-24 16:47:12 GMT 51.740067 10.295639 10,000 265 308 -64
2022-01-24 16:47:09 GMT 51.740532 10.303879 10,000 265 305 -64
2022-01-24 16:47:05 GMT 51.741508 10.320969 10,000 265 302 0
2022-01-24 16:47:01 GMT 51.741508 10.320969 10,000 265 298 64
2022-01-24 16:46:58 GMT 51.741882 10.327225 10,000 265 296 64
2022-01-24 16:46:54 GMT 51.742348 10.335083 10,000 265 289 64
2022-01-24 16:46:50 GMT 51.742859 10.344073 10,000 265 287 64
2022-01-24 16:46:46 GMT 51.743324 10.352173 10,000 265 285 0
2022-01-24 16:46:43 GMT 51.743729 10.358549 10,000 265 285 0
2022-01-24 16:46:40 GMT 51.744232 10.367011 10,000 265 285 0
2022-01-24 16:46:37 GMT 51.744598 10.372950 10,000 265 285 0
2022-01-24 16:46:34 GMT 51.744953 10.379257 10,000 265 285 0
2022-01-24 16:46:30 GMT 51.745464 10.386887 10,000 265 285 0
2022-01-24 16:46:27 GMT 51.746017 10.395739 10,000 265 285 0
2022-01-24 16:46:24 GMT 51.746304 10.400314 10,000 265 285 0
2022-01-24 16:46:21 GMT 51.746887 10.409323 10,000 265 285 0
2022-01-24 16:46:17 GMT 51.747189 10.413971 10,000 265 285 0
2022-01-24 16:46:14 GMT 51.747654 10.421600 10,000 265 285 0
2022-01-24 16:46:11 GMT 51.748077 10.427733 10,000 265 286 0
2022-01-24 16:46:08 GMT 51.749039 10.443173 10,000 265 286 0
2022-01-24 16:46:04 GMT 51.749039 10.443173 10,000 264 286 0
2022-01-24 16:46:00 GMT 51.749680 10.453343 10,000 265 286 0
2022-01-24 16:45:56 GMT 51.750072 10.459747 10,000 264 286 0
2022-01-24 16:45:53 GMT 51.751007 10.473757 10,000 264 286 0
2022-01-24 16:45:50 GMT 51.751007 10.473757 10,000 264 286 0
2022-01-24 16:45:45 GMT 51.751518 10.481796 10,000 264 286 0
2022-01-24 16:45:42 GMT 51.752106 10.490756 10,000 264 286 0
2022-01-24 16:45:39 GMT 51.752380 10.494987 10,000 264 286 0
2022-01-24 16:45:36 GMT 51.752930 10.503524 10,000 264 286 0
2022-01-24 16:45:33 GMT 51.753250 10.508646 10,000 264 286 0
2022-01-24 16:45:29 GMT 51.753799 10.516739 10,000 264 286 0
2022-01-24 16:45:26 GMT 51.754120 10.522230 10,000 265 287 0
2022-01-24 16:45:23 GMT 51.754589 10.529480 10,000 265 287 0
2022-01-24 16:45:20 GMT 51.755054 10.536270 10,000 265 287 0
2022-01-24 16:45:17 GMT 51.755848 10.549011 10,000 265 287 0
2022-01-24 16:45:14 GMT 51.755848 10.549011 10,000 265 287 0
2022-01-24 16:45:11 GMT 51.756268 10.554962 10,000 265 287 0
2022-01-24 16:45:08 GMT 51.756592 10.560534 10,000 265 287 0
2022-01-24 16:45:04 GMT 51.757278 10.570555 10,000 265 287 0
2022-01-24 16:45:01 GMT 51.757553 10.574860 10,000 264 287 0
2022-01-24 16:44:58 GMT 51.758194 10.584139 10,000 264 287 0
2022-01-24 16:44:54 GMT 51.758652 10.591117 10,000 264 287 0
2022-01-24 16:44:51 GMT 51.759014 10.596542 10,000 264 287 0
2022-01-24 16:44:48 GMT 51.759525 10.604095 10,000 264 287 0
2022-01-24 16:44:44 GMT 51.760132 10.612869 10,000 264 287 0
2022-01-24 16:44:41 GMT 51.760502 10.617981 10,000 264 287 0
2022-01-24 16:44:38 GMT 51.761013 10.625610 10,000 264 287 0
2022-01-24 16:44:33 GMT 51.761765 10.636028 10,000 264 287 0
2022-01-24 16:44:30 GMT 51.762131 10.641372 10,000 264 287 0
2022-01-24 16:44:27 GMT 51.762634 10.649092 10,000 265 287 0
2022-01-24 16:44:24 GMT 51.762970 10.654602 10,000 265 287 0
2022-01-24 16:44:21 GMT 51.763901 10.669098 10,000 265 287 0
2022-01-24 16:44:18 GMT 51.763901 10.669098 10,000 265 287 0
2022-01-24 16:44:14 GMT 51.764458 10.677567 10,000 265 286 0
2022-01-24 16:44:10 GMT 51.765289 10.690737 10,000 265 286 0
2022-01-24 16:44:07 GMT 51.765289 10.690737 10,000 265 286 0
2022-01-24 16:44:04 GMT 51.766273 10.706482 10,000 265 286 0
2022-01-24 16:44:00 GMT 51.766273 10.706482 10,000 265 286 0
2022-01-24 16:43:56 GMT 51.766708 10.713674 10,000 265 286 0
2022-01-24 16:43:53 GMT 51.767578 10.727259 10,000 265 286 0
2022-01-24 16:43:50 GMT 51.767578 10.727259 10,000 265 286 0
2022-01-24 16:43:46 GMT 51.768044 10.734482 10,000 265 286 0
2022-01-24 16:43:43 GMT 51.768494 10.741734 10,000 265 286 0
2022-01-24 16:43:40 GMT 51.768883 10.748062 10,000 265 287 0
2022-01-24 16:43:37 GMT 51.769409 10.756135 10,000 265 286 0
2022-01-24 16:43:33 GMT 51.769913 10.764523 10,000 265 286 0
2022-01-24 16:43:29 GMT 51.770325 10.770950 10,000 265 286 0
2022-01-24 16:43:26 GMT 51.771286 10.785828 10,000 265 286 0
2022-01-24 16:43:23 GMT 51.771286 10.785828 10,000 265 286 0
2022-01-24 16:43:20 GMT 51.771561 10.790059 10,000 265 286 0
2022-01-24 16:43:17 GMT 51.772064 10.798596 10,000 265 287 0
2022-01-24 16:43:14 GMT 51.772339 10.802678 10,000 265 287 0
2022-01-24 16:43:10 GMT 51.773529 10.821459 10,000 265 287 0
2022-01-24 16:43:06 GMT 51.773529 10.821459 10,000 265 287 0
2022-01-24 16:43:02 GMT 51.774513 10.837402 10,000 265 287 0
2022-01-24 16:42:58 GMT 51.774513 10.837402 10,000 265 287 0
2022-01-24 16:42:55 GMT 51.774902 10.843803 10,000 265 287 0
2022-01-24 16:42:52 GMT 51.775307 10.850220 10,000 265 287 0
2022-01-24 16:42:49 GMT 51.775726 10.856645 10,000 265 287 0
2022-01-24 16:42:45 GMT 51.776749 10.873260 10,000 265 287 0
2022-01-24 16:42:42 GMT 51.777054 10.877875 10,000 265 287 0
2022-01-24 16:42:39 GMT 51.777054 10.877875 10,000 265 287 0
2022-01-24 16:42:35 GMT 51.777538 10.886002 10,000 265 287 0
2022-01-24 16:42:32 GMT 51.777969 10.893241 10,000 265 286 0
2022-01-24 16:42:29 GMT 51.778378 10.899658 10,000 265 286 0
2022-01-24 16:42:26 GMT 51.778793 10.906826 10,000 265 286 0
2022-01-24 16:42:23 GMT 51.779171 10.912399 10,000 265 286 0
2022-01-24 16:42:20 GMT 51.779480 10.917738 10,000 265 286 0
2022-01-24 16:42:17 GMT 51.779892 10.924716 10,000 265 286 0
2022-01-24 16:42:14 GMT 51.780380 10.932770 10,000 265 286 0
2022-01-24 16:42:10 GMT 51.780800 10.940247 10,000 265 286 0
2022-01-24 16:42:07 GMT 51.781170 10.946350 10,000 265 286 0
2022-01-24 16:42:03 GMT 51.781635 10.953827 10,000 265 285 0
2022-01-24 16:42:00 GMT 51.782501 10.967770 10,000 265 285 0
2022-01-24 16:41:57 GMT 51.782501 10.967770 10,000 265 286 0
2022-01-24 16:41:52 GMT 51.783127 10.978546 10,000 265 286 0
2022-01-24 16:41:49 GMT 51.783501 10.984497 10,000 265 286 0
2022-01-24 16:41:46 GMT 51.783779 10.989532 10,000 265 286 0
2022-01-24 16:41:43 GMT 51.784653 11.003476 10,000 265 286 0
2022-01-24 16:41:40 GMT 51.784653 11.003476 10,000 265 286 0
2022-01-24 16:41:37 GMT 51.785110 11.011047 10,000 265 286 64
2022-01-24 16:41:34 GMT 51.785431 11.017060 10,000 265 286 64
2022-01-24 16:41:31 GMT 51.785782 11.022568 10,000 265 286 0
2022-01-24 16:41:28 GMT 51.786163 11.029086 10,000 265 286 0
2022-01-24 16:41:24 GMT 51.786991 11.043091 10,000 265 285 0
2022-01-24 16:41:21 GMT 51.786991 11.043091 10,000 265 285 0
2022-01-24 16:41:17 GMT 51.787491 11.051058 10,000 265 285 0
2022-01-24 16:41:14 GMT 51.787949 11.058630 10,000 265 285 0
2022-01-24 16:41:11 GMT 51.789001 11.075703 10,000 265 285 0
2022-01-24 16:41:06 GMT 51.789001 11.075703 10,000 265 285 -64
2022-01-24 16:41:02 GMT 51.789410 11.082916 10,000 265 285 0
2022-01-24 16:40:59 GMT 51.789879 11.090469 10,000 265 285 0
2022-01-24 16:40:55 GMT 51.790375 11.098418 10,000 265 285 0
2022-01-24 16:40:51 GMT 51.791290 11.113784 10,000 265 284 0
2022-01-24 16:40:48 GMT 51.791290 11.113784 10,000 265 284 0
2022-01-24 16:40:45 GMT 51.791611 11.118832 10,000 265 284 0
2022-01-24 16:40:42 GMT 51.792068 11.126404 10,000 265 284 0
2022-01-24 16:40:39 GMT 51.792526 11.134050 10,000 265 284 0
2022-01-24 16:40:36 GMT 51.792984 11.141399 10,000 265 284 0
2022-01-24 16:40:33 GMT 51.793182 11.144562 10,000 265 285 0
2022-01-24 16:40:30 GMT 51.793625 11.151791 10,000 265 285 0
2022-01-24 16:40:26 GMT 51.794159 11.159821 10,000 265 286 -64
2022-01-24 16:40:23 GMT 51.794540 11.166192 10,000 265 286 -64
2022-01-24 16:40:20 GMT 51.794952 11.172562 10,000 265 287 -192
2022-01-24 16:40:17 GMT 51.795273 11.178069 10,000 265 287 -192
2022-01-24 16:40:14 GMT 51.795685 11.183934 10,025 265 287 -384
2022-01-24 16:40:11 GMT 51.796188 11.192396 10,075 265 286 -896
2022-01-24 16:40:08 GMT 51.796600 11.198557 10,125 265 286 -960
2022-01-24 16:40:05 GMT 51.796951 11.204758 10,175 265 286 -960
2022-01-24 16:40:02 GMT 51.797424 11.211993 10,200 265 285 -960
2022-01-24 16:39:58 GMT 51.797974 11.220604 10,275 265 285 -960
2022-01-24 16:39:54 GMT 51.798347 11.226959 10,300 265 285 -960
2022-01-24 16:39:50 GMT 51.799046 11.237793 10,400 265 284 -960
2022-01-24 16:39:47 GMT 51.799374 11.242981 10,425 265 284 -960
2022-01-24 16:39:44 GMT 51.800079 11.254380 10,550 265 284 -960
2022-01-24 16:39:41 GMT 51.800079 11.254380 10,550 265 284 -960
2022-01-24 16:39:38 GMT 51.800537 11.261520 10,575 265 284 -960
2022-01-24 16:39:35 GMT 51.801003 11.269150 10,700 265 284 -960
2022-01-24 16:39:30 GMT 51.801590 11.278579 10,675 265 284 -960
2022-01-24 16:39:27 GMT 51.802399 11.291046 10,750 265 284 -960
2022-01-24 16:39:24 GMT 51.802399 11.291046 10,800 265 285 -1024
2022-01-24 16:39:20 GMT 51.803005 11.301041 10,950 265 287 -1664
2022-01-24 16:39:17 GMT 51.803375 11.307220 10,950 265 285 -3200
2022-01-24 16:39:14 GMT 51.803741 11.312726 11,075 265 285 -3200
2022-01-24 16:39:10 GMT 51.804123 11.319809 11,225 265 285 -3264
2022-01-24 16:39:07 GMT 51.804749 11.329502 11,650 265 286 -3072
2022-01-24 16:39:03 GMT 51.805115 11.335664 11,800 265 287 -2944
2022-01-24 16:39:00 GMT 51.805893 11.348432 11,850 265 288 -2880
2022-01-24 16:38:57 GMT 51.805893 11.348432 12,000 265 289 -2816
2022-01-24 16:38:54 GMT 51.806355 11.355591 12,225 264 290 -2816
2022-01-24 16:38:51 GMT 51.806763 11.362016 12,300 264 291 -2816
2022-01-24 16:38:48 GMT 51.807148 11.367798 12,300 264 291 -2816
2022-01-24 16:38:45 GMT 51.807541 11.373448 12,525 264 293 -2752
2022-01-24 16:38:42 GMT 51.807953 11.379535 12,625 264 294 -2560
2022-01-24 16:38:39 GMT 51.809101 11.394958 12,800 264 299 -2048
2022-01-24 16:38:36 GMT 51.809101 11.394958 12,875 264 303 -1536
2022-01-24 16:38:32 GMT 51.809616 11.402130 12,975 264 307 -1024
2022-01-24 16:38:29 GMT 51.810173 11.410294 13,025 264 313 -704
2022-01-24 16:38:26 GMT 51.810654 11.417170 13,050 264 317 -640
2022-01-24 16:38:23 GMT 51.811058 11.423264 13,075 264 319 -640
2022-01-24 16:38:19 GMT 51.811752 11.433353 13,125 264 329 -704
2022-01-24 16:38:16 GMT 51.812256 11.440999 13,175 264 333 -704
2022-01-24 16:38:13 GMT 51.812714 11.448051 13,175 264 336 -896
2022-01-24 16:38:09 GMT 51.813400 11.458146 13,300 264 343 -1088
2022-01-24 16:38:06 GMT 51.813992 11.466675 13,325 264 346 -960
2022-01-24 16:38:03 GMT 51.814548 11.474991 13,400 264 349 -1856
2022-01-24 16:38:00 GMT 51.815048 11.481752 13,475 264 349 -2368
2022-01-24 16:37:56 GMT 51.816364 11.499786 13,850 264 348 -4352
2022-01-24 16:37:53 GMT 51.816921 11.507034 14,150 263 350 -4544
2022-01-24 16:37:50 GMT 51.817528 11.515350 14,250 263 351 -4544
2022-01-24 16:37:47 GMT 51.817528 11.515350 14,500 263 352 -4544
2022-01-24 16:37:44 GMT 51.818089 11.522675 14,600 264 355 -4480
2022-01-24 16:37:40 GMT 51.819077 11.535719 14,975 264 354 -4544
2022-01-24 16:37:36 GMT 51.819809 11.545715 15,350 264 356 -4544
2022-01-24 16:37:33 GMT 51.820358 11.553683 15,700 264 358 -4544
2022-01-24 16:37:29 GMT 51.821018 11.562805 15,850 264 359 -4608
2022-01-24 16:37:26 GMT 51.821579 11.570282 16,000 264 360 -4608
2022-01-24 16:37:23 GMT 51.822189 11.578254 16,200 264 361 -4672
2022-01-24 16:37:20 GMT 51.822838 11.587372 16,625 264 363 -4672
2022-01-24 16:37:17 GMT 51.823425 11.595475 16,950 264 364 -4736
2022-01-24 16:37:14 GMT 51.824112 11.604903 16,950 264 365 -4736
2022-01-24 16:37:10 GMT 51.824936 11.616038 17,325 264 367 -4800
2022-01-24 16:37:07 GMT 51.825397 11.622009 17,575 264 367 -4800
2022-01-24 16:37:04 GMT 51.825863 11.628494 17,850 264 368 -4800
2022-01-24 16:37:01 GMT 51.826511 11.638107 18,075 264 370 -4736
2022-01-24 16:36:58 GMT 51.827682 11.654267 18,300 264 371 -4800
2022-01-24 16:36:55 GMT 51.827682 11.654267 18,650 264 372 -4736
2022-01-24 16:36:52 GMT 51.828323 11.663027 18,650 264 373 -4672
2022-01-24 16:36:48 GMT 51.829147 11.673939 19,150 264 375 -4672
2022-01-24 16:36:45 GMT 51.829880 11.684108 19,275 264 376 -4672
2022-01-24 16:36:42 GMT 51.830383 11.690789 19,575 264 378 -4672
2022-01-24 16:36:39 GMT 51.831116 11.700885 19,750 264 379 -4608
2022-01-24 16:36:36 GMT 51.831573 11.707640 20,025 264 380 -4672
2022-01-24 16:36:33 GMT 51.832214 11.716399 20,250 264 382 -4800
2022-01-24 16:36:30 GMT 51.832935 11.725998 20,475 264 383 -4864
2022-01-24 16:36:27 GMT 51.833542 11.734238 20,750 264 384 -4928
2022-01-24 16:36:24 GMT 51.834286 11.744614 21,000 264 385 -4864
2022-01-24 16:36:21 GMT 51.834549 11.748468 21,050 264 386 -4864
2022-01-24 16:36:17 GMT 51.835556 11.762349 21,525 264 389 -4800
2022-01-24 16:36:14 GMT 51.835968 11.768139 21,750 264 390 -4800
2022-01-24 16:36:11 GMT 51.836662 11.777954 21,875 264 391 -4864
2022-01-24 16:36:07 GMT 51.837593 11.790619 22,300 264 392 -4992
2022-01-24 16:36:04 GMT 51.838120 11.798277 22,850 264 396 -4864
2022-01-24 16:36:01 GMT 51.838806 11.807630 22,850 264 396 -4864
2022-01-24 16:35:58 GMT 51.839409 11.816406 23,050 264 397 -4864
2022-01-24 16:35:55 GMT 51.840244 11.828003 23,275 264 398 -4928
2022-01-24 16:35:52 GMT 51.840664 11.833878 23,425 264 399 -4928
2022-01-24 16:35:50 GMT 51.841095 11.839402 23,575 264 400 -4928
2022-01-24 16:35:48 GMT 51.841782 11.848903 23,850 264 402 -4992
2022-01-24 16:35:45 GMT 51.842434 11.857910 24,100 264 404 -5056
2022-01-24 16:35:42 GMT 51.843086 11.867294 24,350 264 405 -5056
2022-01-24 16:35:38 GMT 51.843784 11.877136 24,700 264 408 -4992
2022-01-24 16:35:34 GMT 51.844715 11.890182 25,100 264 412 -4992
2022-01-24 16:35:31 GMT 51.845215 11.898045 25,425 264 412 -4992
2022-01-24 16:35:26 GMT 51.846268 11.912966 25,775 264 416 -4992
2022-01-24 16:35:23 GMT 51.846954 11.922764 25,850 264 416 -4992
2022-01-24 16:35:20 GMT 51.847507 11.930771 26,100 264 418 -4928
2022-01-24 16:35:17 GMT 51.848419 11.943846 26,575 264 422 -4992
2022-01-24 16:35:14 GMT 51.848999 11.951981 26,625 264 422 -4992
2022-01-24 16:35:11 GMT 51.849747 11.962627 26,900 264 424 -5312
2022-01-24 16:35:06 GMT 51.850662 11.975246 27,275 264 426 -5696
2022-01-24 16:35:05 GMT 51.851048 11.980972 27,525 264 427 -5824
2022-01-24 16:35:03 GMT 51.851303 11.984080 27,525 264 427 -5888
2022-01-24 16:35:02 GMT 51.851532 11.987866 27,650 264 428 -6208
2022-01-24 16:35:00 GMT 51.851933 11.993637 27,825 264 428 -6208
2022-01-24 16:34:57 GMT 51.852585 12.002860 28,350 264 429 -6336
2022-01-24 16:34:54 GMT 51.853279 12.012634 28,475 264 431 -5952
2022-01-24 16:34:51 GMT 51.853958 12.022309 28,625 264 431 -5952
2022-01-24 16:34:48 GMT 51.854816 12.034302 29,075 264 435 -4096
2022-01-24 16:34:44 GMT 51.855701 12.047424 29,300 264 435 -3584
2022-01-24 16:34:41 GMT 51.856201 12.054303 29,475 264 435 -3584
2022-01-24 16:34:39 GMT 51.856865 12.063980 29,625 264 435 -3840
2022-01-24 16:34:36 GMT 51.858215 12.083511 29,875 264 435 -3840
2022-01-24 16:34:33 GMT 51.858215 12.083511 30,150 264 434 -3904
2022-01-24 16:34:30 GMT 51.858536 12.088079 30,150 264 434 -3968
2022-01-24 16:34:28 GMT 51.859726 12.105969 30,475 264 432 -4416
2022-01-24 16:34:25 GMT 51.859726 12.105969 30,475 264 432 -4416
2022-01-24 16:34:22 GMT 51.860310 12.114410 31,600 264 426 -5248
2022-01-24 16:34:19 GMT 51.861832 12.136626 31,050 264 426 -5248
2022-01-24 16:34:16 GMT 51.861832 12.136626 31,325 264 424 -5184
2022-01-24 16:34:13 GMT 51.862358 12.144623 31,800 264 420 -5056
2022-01-24 16:34:10 GMT 51.863022 12.154145 31,800 264 418 -5056
2022-01-24 16:34:07 GMT 51.863663 12.163315 32,050 264 415 -4736
2022-01-24 16:34:04 GMT 51.865013 12.182999 32,350 264 413 -4288
2022-01-24 16:34:01 GMT 51.865013 12.182999 32,500 264 412 -3904
2022-01-24 16:33:57 GMT 51.865803 12.194672 32,750 264 411 -3264
2022-01-24 16:33:54 GMT 51.866959 12.211749 33,975 264 410 -2752
2022-01-24 16:33:51 GMT 51.866959 12.211749 33,100 264 410 -2752
2022-01-24 16:33:48 GMT 51.868423 12.233648 33,225 264 410 -2688
2022-01-24 16:33:45 GMT 51.868423 12.233648 33,350 264 410 -2624
2022-01-24 16:33:42 GMT 51.869019 12.242110 33,500 264 410 -2432
2022-01-24 16:33:39 GMT 51.869434 12.248535 33,550 264 410 -2368
2022-01-24 16:33:35 GMT 51.870274 12.260971 33,750 264 411 -1984
2022-01-24 16:33:32 GMT 51.870876 12.269516 33,875 264 413 -1280
2022-01-24 16:33:29 GMT 51.871490 12.278706 33,900 264 413 -1152
2022-01-24 16:33:26 GMT 51.872135 12.287903 33,950 264 415 -704
2022-01-24 16:33:23 GMT 51.872818 12.298155 33,975 264 416 -448
2022-01-24 16:33:20 GMT 51.873322 12.305727 34,000 264 418 0
2022-01-24 16:33:17 GMT 51.874008 12.315525 34,000 264 418 -192
2022-01-24 16:33:14 GMT 51.874649 12.325324 34,000 264 419 0
2022-01-24 16:33:11 GMT 51.875381 12.335642 34,000 264 419 64
2022-01-24 16:33:08 GMT 51.876526 12.353012 34,000 264 419 64
2022-01-24 16:33:05 GMT 51.876526 12.353012 34,000 264 419 0
2022-01-24 16:33:03 GMT 51.877167 12.362588 34,000 264 419 0
2022-01-24 16:33:00 GMT 51.877583 12.368546 34,000 264 418 -64
2022-01-24 16:32:57 GMT 51.878326 12.379684 34,000 264 418 -64
2022-01-24 16:32:54 GMT 51.878792 12.387161 34,000 264 418 0
2022-01-24 16:32:52 GMT 51.879444 12.396851 34,000 264 418 0
2022-01-24 16:32:49 GMT 51.880096 12.406163 34,000 264 418 64
2022-01-24 16:32:46 GMT 51.880417 12.411062 34,000 264 418 64
2022-01-24 16:32:43 GMT 51.881119 12.421646 34,000 265 418 -64
2022-01-24 16:32:40 GMT 51.881680 12.430420 34,000 264 418 0
2022-01-24 16:32:37 GMT 51.882423 12.441559 34,000 265 418 0
2022-01-24 16:32:34 GMT 51.882980 12.450485 34,000 264 418 0
2022-01-24 16:32:31 GMT 51.883446 12.457962 34,000 264 418 0
2022-01-24 16:32:28 GMT 51.884079 12.467255 34,000 264 418 0
2022-01-24 16:32:25 GMT 51.884842 12.479095 34,000 264 418 0
2022-01-24 16:32:22 GMT 51.886005 12.496414 34,000 264 418 0
2022-01-24 16:32:19 GMT 51.886005 12.496414 34,000 264 418 0
2022-01-24 16:32:16 GMT 51.886505 12.504520 34,000 264 418 -64
2022-01-24 16:32:13 GMT 51.887356 12.517548 34,000 264 418 0
2022-01-24 16:32:10 GMT 51.887878 12.525602 34,000 264 418 0
2022-01-24 16:32:07 GMT 51.888382 12.533025 34,000 264 418 64
2022-01-24 16:32:04 GMT 51.888977 12.541784 34,000 264 418 0
2022-01-24 16:32:02 GMT 51.889965 12.557297 34,000 264 418 0
2022-01-24 16:31:59 GMT 51.890617 12.566986 34,000 265 418 0
2022-01-24 16:31:56 GMT 51.890617 12.566986 34,000 265 418 0
2022-01-24 16:31:53 GMT 51.891315 12.578125 34,000 265 418 64
2022-01-24 16:31:50 GMT 51.891918 12.587128 34,000 265 418 64
2022-01-24 16:31:47 GMT 51.892410 12.595157 34,000 265 418 0
2022-01-24 16:31:44 GMT 51.893036 12.604446 34,000 264 418 0
2022-01-24 16:31:42 GMT 51.893410 12.610474 34,000 264 418 0
2022-01-24 16:31:39 GMT 51.894012 12.619934 34,000 264 418 0
2022-01-24 16:31:36 GMT 51.894699 12.630157 34,000 264 418 0
2022-01-24 16:31:34 GMT 51.895020 12.635117 34,000 264 418 0
2022-01-24 16:31:32 GMT 51.896027 12.651215 34,000 265 418 -64
2022-01-24 16:31:29 GMT 51.896027 12.651215 34,000 265 418 0
2022-01-24 16:31:26 GMT 51.896622 12.660488 34,000 265 418 64
2022-01-24 16:31:23 GMT 51.897785 12.678850 34,000 265 418 0
2022-01-24 16:31:20 GMT 51.898407 12.688446 34,000 265 418 -64
2022-01-24 16:31:17 GMT 51.898407 12.688446 34,000 265 418 -64
2022-01-24 16:31:15 GMT 51.898727 12.693405 34,000 265 418 0
2022-01-24 16:31:12 GMT 51.899506 12.705765 34,000 265 418 64
2022-01-24 16:31:09 GMT 51.900112 12.715105 34,000 265 418 0
2022-01-24 16:31:06 GMT 51.900578 12.722560 34,000 265 418 0
2022-01-24 16:31:03 GMT 51.901749 12.740555 34,000 265 418 0
2022-01-24 16:31:00 GMT 51.901749 12.740555 34,000 265 418 0
2022-01-24 16:30:57 GMT 51.902252 12.748614 34,000 265 418 0
2022-01-24 16:30:54 GMT 51.902950 12.759757 34,000 265 418 0
2022-01-24 16:30:50 GMT 51.903698 12.772234 34,000 265 418 -64
2022-01-24 16:30:47 GMT 51.904209 12.779689 34,000 265 418 -64
2022-01-24 16:30:44 GMT 51.904999 12.792167 34,000 265 418 0
2022-01-24 16:30:41 GMT 51.905464 12.799622 34,000 265 418 -64
2022-01-24 16:30:38 GMT 51.906189 12.811432 34,000 265 418 -64
2022-01-24 16:30:35 GMT 51.906601 12.817688 34,000 265 418 0
2022-01-24 16:30:32 GMT 51.907196 12.827530 34,000 265 418 64
2022-01-24 16:30:29 GMT 51.908295 12.844925 34,000 265 418 0
2022-01-24 16:30:26 GMT 51.908295 12.844925 34,000 265 418 0
2022-01-24 16:30:24 GMT 51.909191 12.859262 34,000 265 418 0
2022-01-24 16:30:22 GMT 51.909191 12.859262 34,000 265 418 0
2022-01-24 16:30:19 GMT 51.909714 12.867203 34,000 265 418 0
2022-01-24 16:30:16 GMT 51.910309 12.876683 34,000 265 418 0
2022-01-24 16:30:14 GMT 51.910767 12.884598 34,000 265 418 0
2022-01-24 16:30:09 GMT 51.911655 12.898891 34,000 265 418 64
2022-01-24 16:30:06 GMT 51.913101 12.921982 34,000 265 418 0
2022-01-24 16:30:03 GMT 51.913101 12.921982 34,000 265 418 0
2022-01-24 16:30:00 GMT 51.913467 12.928238 34,000 265 418 0
2022-01-24 16:29:56 GMT 51.914032 12.937500 34,000 265 418 0
2022-01-24 16:29:53 GMT 51.914612 12.946854 34,000 265 418 -64
2022-01-24 16:29:51 GMT 51.915195 12.956020 34,000 265 418 -64
2022-01-24 16:29:48 GMT 51.915848 12.966690 34,000 265 418 -64
2022-01-24 16:29:45 GMT 51.916359 12.974775 34,000 265 418 0
2022-01-24 16:29:42 GMT 51.917038 12.986298 34,000 265 418 0
2022-01-24 16:29:39 GMT 51.917381 12.992118 34,000 265 418 0
2022-01-24 16:29:36 GMT 51.917988 13.001927 34,000 265 418 0
2022-01-24 16:29:33 GMT 51.918457 13.009949 34,000 265 418 0
2022-01-24 16:29:31 GMT 51.919060 13.019427 34,000 265 418 -64
2022-01-24 16:29:28 GMT 51.919479 13.026725 34,000 265 418 -64
2022-01-24 16:29:25 GMT 51.920609 13.044968 34,000 265 419 0
2022-01-24 16:29:22 GMT 51.920609 13.044968 34,000 265 419 0
2022-01-24 16:29:19 GMT 51.921154 13.054269 34,000 265 419 0
2022-01-24 16:29:16 GMT 51.921982 13.067398 34,000 265 419 0
2022-01-24 16:29:12 GMT 51.922691 13.079067 34,000 265 419 64
2022-01-24 16:29:08 GMT 51.923389 13.090445 34,000 265 419 0
2022-01-24 16:29:05 GMT 51.924507 13.109044 34,000 265 419 0
2022-01-24 16:29:02 GMT 51.925110 13.119088 34,000 265 418 64
2022-01-24 16:28:59 GMT 51.925575 13.126465 34,000 265 418 0
2022-01-24 16:28:56 GMT 51.926369 13.140355 34,000 265 419 -64
2022-01-24 16:28:52 GMT 51.926926 13.149719 34,000 265 419 64
2022-01-24 16:28:49 GMT 51.926926 13.149719 34,000 265 419 0
2022-01-24 16:28:46 GMT 51.927856 13.165309 34,000 265 419 0
2022-01-24 16:28:43 GMT 51.927856 13.165309 34,000 265 419 0
2022-01-24 16:28:39 GMT 51.928741 13.180298 34,000 265 420 0
2022-01-24 16:28:36 GMT 51.929253 13.188851 34,000 265 420 0
2022-01-24 16:28:34 GMT 51.929810 13.198166 34,000 265 420 0
2022-01-24 16:28:31 GMT 51.930222 13.204727 34,000 265 420 64
2022-01-24 16:28:28 GMT 51.930725 13.213501 34,000 265 420 0
2022-01-24 16:28:25 GMT 51.931396 13.224008 34,000 265 418 0
2022-01-24 16:28:22 GMT 51.931812 13.231541 34,000 265 418 0
2022-01-24 16:28:19 GMT 51.932465 13.242763 34,000 265 419 -64
2022-01-24 16:28:16 GMT 51.932968 13.250885 34,000 265 419 0
2022-01-24 16:28:14 GMT 51.933334 13.256989 34,000 265 419 -64
2022-01-24 16:28:11 GMT 51.934467 13.276428 34,000 265 419 0
2022-01-24 16:28:08 GMT 51.934467 13.276428 34,000 265 419 0
2022-01-24 16:28:05 GMT 51.934887 13.283962 34,000 265 419 0
2022-01-24 16:28:03 GMT 51.935352 13.291574 34,000 265 419 0
2022-01-24 16:28:01 GMT 51.935898 13.300934 34,000 265 419 64
2022-01-24 16:27:58 GMT 51.936310 13.308411 34,000 265 418 64
2022-01-24 16:27:55 GMT 51.937447 13.327750 34,000 265 419 0
2022-01-24 16:27:52 GMT 51.937447 13.327750 34,000 265 419 0
2022-01-24 16:27:49 GMT 51.937866 13.334579 34,000 265 419 0
2022-01-24 16:27:46 GMT 51.938519 13.346113 34,000 265 419 -64
2022-01-24 16:27:43 GMT 51.938984 13.353882 34,000 265 419 -64
2022-01-24 16:27:40 GMT 51.939514 13.363266 34,000 265 419 0
2022-01-24 16:27:37 GMT 51.940063 13.372955 34,000 265 419 0
2022-01-24 16:27:34 GMT 51.940750 13.385114 34,000 265 419 0
2022-01-24 16:27:31 GMT 51.941078 13.390058 34,000 265 419 0
2022-01-24 16:27:28 GMT 51.941666 13.400726 34,000 265 420 64
2022-01-24 16:27:25 GMT 51.942123 13.408279 34,000 265 419 0
2022-01-24 16:27:23 GMT 51.942581 13.416824 34,000 265 420 64
2022-01-24 16:27:21 GMT 51.942848 13.421369 34,000 265 420 64
2022-01-24 16:27:18 GMT 51.943451 13.431414 34,000 265 420 0
2022-01-24 16:27:15 GMT 51.943916 13.440125 34,000 265 420 0
2022-01-24 16:27:13 GMT 51.944386 13.447658 34,000 265 421 -64
2022-01-24 16:27:11 GMT 51.944710 13.453936 34,000 265 421 -64
2022-01-24 16:27:08 GMT 51.945190 13.461838 34,000 265 421 0
2022-01-24 16:27:05 GMT 51.946198 13.479691 34,000 265 421 0
2022-01-24 16:27:03 GMT 51.946198 13.479691 34,000 265 421 0
2022-01-24 16:26:58 GMT 51.947067 13.494720 34,000 265 422 0
2022-01-24 16:26:55 GMT 51.947800 13.507309 34,000 265 422 0
2022-01-24 16:26:52 GMT 51.948109 13.512948 34,000 265 422 64
2022-01-24 16:26:49 GMT 51.948666 13.522993 34,000 265 421 64
2022-01-24 16:26:45 GMT 51.949356 13.535004 34,000 265 421 0
2022-01-24 16:26:42 GMT 51.949951 13.544998 34,000 265 421 64
2022-01-24 16:26:39 GMT 51.950592 13.556366 34,000 265 421 0
2022-01-24 16:26:36 GMT 51.951180 13.567017 34,000 265 421 0
2022-01-24 16:26:33 GMT 51.951599 13.574629 34,000 265 421 0
2022-01-24 16:26:30 GMT 51.952160 13.584673 34,000 265 421 64
2022-01-24 16:26:27 GMT 51.952484 13.590951 34,000 265 421 64
2022-01-24 16:26:24 GMT 51.953110 13.601532 34,000 265 421 -64
2022-01-24 16:26:21 GMT 51.953430 13.607864 34,000 265 421 -64
2022-01-24 16:26:18 GMT 51.954163 13.620300 34,000 265 421 -64
2022-01-24 16:26:15 GMT 51.954674 13.629874 34,000 265 421 -64
2022-01-24 16:26:12 GMT 51.955261 13.640518 34,000 265 421 -64
2022-01-24 16:26:08 GMT 51.955788 13.649963 34,000 265 421 64
2022-01-24 16:26:05 GMT 51.956394 13.661185 34,000 265 421 64
2022-01-24 16:26:02 GMT 51.957001 13.671951 34,000 265 420 64
2022-01-24 16:25:59 GMT 51.957466 13.680176 34,000 265 421 0
2022-01-24 16:25:55 GMT 51.958054 13.690796 34,000 265 420 0
2022-01-24 16:25:52 GMT 51.958584 13.700187 34,000 265 420 64
2022-01-24 16:25:50 GMT 51.959000 13.707720 34,000 265 420 64
2022-01-24 16:25:47 GMT 51.959652 13.720276 34,000 265 420 0
2022-01-24 16:25:44 GMT 51.960491 13.735264 34,000 265 420 0
2022-01-24 16:25:41 GMT 51.960491 13.735264 34,000 265 420 0
2022-01-24 16:25:39 GMT 51.960957 13.744053 34,000 265 420 64
2022-01-24 16:25:36 GMT 51.961422 13.752842 34,000 265 420 0
2022-01-24 16:25:33 GMT 51.961899 13.760986 34,000 265 420 -64
2022-01-24 16:25:30 GMT 51.962399 13.770421 34,000 265 420 0
2022-01-24 16:25:27 GMT 51.962906 13.779755 34,000 265 420 0
2022-01-24 16:25:24 GMT 51.963425 13.789176 34,000 265 420 0
2022-01-24 16:25:21 GMT 51.963867 13.797302 34,000 265 420 -64
2022-01-24 16:25:18 GMT 51.964447 13.808010 34,000 265 420 64
2022-01-24 16:25:15 GMT 51.965099 13.820487 34,000 265 421 0
2022-01-24 16:25:11 GMT 51.966019 13.837433 34,000 265 421 0
2022-01-24 16:25:08 GMT 51.966217 13.840576 34,000 265 421 64
2022-01-24 16:25:05 GMT 51.966751 13.851242 34,000 265 421 0
2022-01-24 16:25:02 GMT 51.967117 13.857498 34,000 266 421 0
2022-01-24 16:24:59 GMT 51.967800 13.870710 34,000 265 421 -64
2022-01-24 16:24:56 GMT 51.968262 13.878860 34,000 266 421 0
2022-01-24 16:24:53 GMT 51.968719 13.887634 34,000 266 421 64
2022-01-24 16:24:50 GMT 51.969589 13.903961 34,000 266 421 64
2022-01-24 16:24:47 GMT 51.969589 13.903961 34,000 265 421 64
2022-01-24 16:24:44 GMT 51.970276 13.916550 34,000 265 422 0
2022-01-24 16:24:41 GMT 51.970779 13.925956 34,000 266 422 -64
2022-01-24 16:24:38 GMT 51.971382 13.937256 34,000 266 422 0
2022-01-24 16:24:35 GMT 51.971756 13.944868 34,000 266 422 64
2022-01-24 16:24:32 GMT 51.972454 13.957424 34,000 266 422 0
2022-01-24 16:24:27 GMT 51.973068 13.969421 34,000 266 422 0
2022-01-24 16:24:24 GMT 51.973991 13.986380 34,000 266 422 0
2022-01-24 16:24:21 GMT 51.973991 13.986380 34,000 266 422 0
2022-01-24 16:24:18 GMT 51.974503 13.996504 34,000 266 422 0
2022-01-24 16:24:15 GMT 51.975082 14.007187 34,000 266 422 0
2022-01-24 16:24:12 GMT 51.975479 14.015337 34,000 266 422 0
2022-01-24 16:24:10 GMT 51.975761 14.020360 34,000 266 422 0
2022-01-24 16:24:07 GMT 51.976273 14.030762 34,000 266 422 0
2022-01-24 16:24:04 GMT 51.976784 14.040527 34,000 266 422 0
2022-01-24 16:24:01 GMT 51.977295 14.050337 34,000 266 422 0
2022-01-24 16:23:58 GMT 51.977829 14.059982 34,000 266 422 0
2022-01-24 16:23:55 GMT 51.978195 14.067535 34,000 266 422 0
2022-01-24 16:23:52 GMT 51.978836 14.079895 34,000 266 422 -64
2022-01-24 16:23:49 GMT 51.979343 14.089260 34,000 266 422 -64
2022-01-24 16:23:46 GMT 51.979809 14.098363 34,000 266 422 0
2022-01-24 16:23:42 GMT 51.980438 14.110336 34,000 266 422 0
2022-01-24 16:23:40 GMT 51.980621 14.114075 34,000 266 421 0
2022-01-24 16:23:37 GMT 51.981812 14.137364 34,000 266 421 64
2022-01-24 16:23:34 GMT 51.981812 14.137364 34,000 266 421 64
2022-01-24 16:23:31 GMT 51.982224 14.145508 34,000 266 421 -64
2022-01-24 16:23:28 GMT 51.982742 14.154942 34,000 266 421 0
2022-01-24 16:23:25 GMT 51.983162 14.163731 34,000 266 421 64
2022-01-24 16:23:22 GMT 51.983643 14.173126 34,000 266 421 0
2022-01-24 16:23:18 GMT 51.984283 14.185791 34,000 266 421 64
2022-01-24 16:23:15 GMT 51.984745 14.194964 34,000 266 421 64
2022-01-24 16:23:11 GMT 51.985428 14.208450 34,000 266 421 64
2022-01-24 16:23:08 GMT 51.985767 14.215210 34,000 266 421 64
2022-01-24 16:23:05 GMT 51.986420 14.228001 34,000 266 421 0
2022-01-24 16:23:02 GMT 51.986839 14.235535 34,000 266 420 0
2022-01-24 16:23:00 GMT 51.987118 14.241813 34,000 266 420 0
2022-01-24 16:22:57 GMT 51.988003 14.259155 34,000 266 420 0
2022-01-24 16:22:54 GMT 51.988003 14.259155 34,000 266 420 0
2022-01-24 16:22:51 GMT 51.988609 14.271633 34,000 266 421 -64
2022-01-24 16:22:48 GMT 51.989025 14.279480 34,000 266 421 0
2022-01-24 16:22:45 GMT 51.989502 14.288864 34,000 266 421 0
2022-01-24 16:22:42 GMT 51.990143 14.301376 34,000 266 421 -64
2022-01-24 16:22:39 GMT 51.990417 14.307709 34,000 266 421 0
2022-01-24 16:22:36 GMT 51.991028 14.319423 34,000 266 421 0
2022-01-24 16:22:33 GMT 51.991379 14.326553 34,000 266 421 0
2022-01-24 16:22:30 GMT 51.991745 14.334106 34,000 266 421 0
2022-01-24 16:22:27 GMT 51.992474 14.348537 34,000 266 421 0
2022-01-24 16:22:24 GMT 51.992798 14.354736 34,000 266 421 64
2022-01-24 16:22:21 GMT 51.993309 14.365016 34,000 266 421 64
2022-01-24 16:22:17 GMT 51.993759 14.374390 34,000 266 421 64
2022-01-24 16:22:14 GMT 51.994446 14.388275 34,000 266 421 -64
2022-01-24 16:22:10 GMT 51.994892 14.397661 34,000 266 422 0
2022-01-24 16:22:07 GMT 51.995453 14.409040 34,000 266 422 0
2022-01-24 16:22:03 GMT 51.996101 14.421361 34,000 266 422 0
2022-01-24 16:22:00 GMT 51.996597 14.432297 34,000 266 422 0
2022-01-24 16:21:57 GMT 51.997032 14.441528 34,000 266 422 0
2022-01-24 16:21:54 GMT 51.997650 14.453583 34,000 266 422 0
2022-01-24 16:21:51 GMT 51.997780 14.456595 34,000 266 422 0
2022-01-24 16:21:49 GMT 51.998245 14.466095 34,000 266 423 0
2022-01-24 16:21:46 GMT 51.998569 14.473153 34,000 266 423 64
2022-01-24 16:21:43 GMT 51.999023 14.482574 34,000 266 423 0
2022-01-24 16:21:40 GMT 51.999710 14.496536 34,000 266 423 64
2022-01-24 16:21:37 GMT 52.000011 14.503523 34,000 266 423 0
2022-01-24 16:21:34 GMT 52.000385 14.511056 34,000 266 423 64
2022-01-24 16:21:31 GMT 52.000900 14.521637 34,000 266 423 64
2022-01-24 16:21:28 GMT 52.001358 14.530640 34,000 266 424 -64
2022-01-24 16:21:25 GMT 52.001736 14.538914 34,000 266 424 -64
2022-01-24 16:21:22 GMT 52.002228 14.549637 34,000 266 424 -64
2022-01-24 16:21:19 GMT 52.002808 14.561672 34,000 266 424 -64
2022-01-24 16:21:16 GMT 52.003281 14.570999 34,000 266 424 64
2022-01-24 16:21:13 GMT 52.003510 14.576111 34,000 266 424 64
2022-01-24 16:21:10 GMT 52.004063 14.588196 34,000 266 424 0
2022-01-24 16:21:07 GMT 52.004517 14.597702 34,000 266 424 0
2022-01-24 16:21:04 GMT 52.004948 14.607108 34,000 266 424 -64
2022-01-24 16:21:01 GMT 52.005432 14.616394 34,000 266 424 -64
2022-01-24 16:20:58 GMT 52.005890 14.626770 34,000 266 424 -64
2022-01-24 16:20:55 GMT 52.006298 14.634966 34,000 266 424 64
2022-01-24 16:20:52 GMT 52.006714 14.644470 34,000 266 424 64
2022-01-24 16:20:49 GMT 52.007320 14.657567 34,000 266 424 0
2022-01-24 16:20:46 GMT 52.007694 14.665179 34,000 266 424 64
2022-01-24 16:20:43 GMT 52.008041 14.672089 34,000 266 424 64
2022-01-24 16:20:40 GMT 52.008636 14.684753 34,000 266 424 -64
2022-01-24 16:20:37 GMT 52.008911 14.691391 34,000 266 424 -64
2022-01-24 16:20:34 GMT 52.009552 14.704971 34,000 266 424 64
2022-01-24 16:20:31 GMT 52.010349 14.722386 34,000 266 424 64
2022-01-24 16:20:28 GMT 52.010719 14.729919 34,000 266 424 64
2022-01-24 16:20:25 GMT 52.011280 14.742240 34,000 266 424 64
2022-01-24 16:20:22 GMT 52.011280 14.742240 34,000 266 425 0
2022-01-24 16:20:19 GMT 52.011658 14.750595 34,000 266 424 0
2022-01-24 16:20:16 GMT 52.012115 14.760289 34,000 266 424 0
2022-01-24 16:20:13 GMT 52.012482 14.768295 34,000 266 424 0
2022-01-24 16:20:11 GMT 52.012802 14.774857 34,000 266 424 0
2022-01-24 16:20:09 GMT 52.013142 14.781869 34,000 266 425 -64
2022-01-24 16:20:06 GMT 52.013466 14.789403 34,000 266 425 -64
2022-01-24 16:20:03 GMT 52.013855 14.797440 34,000 266 425 0
2022-01-24 16:20:00 GMT 52.014404 14.809036 34,000 266 425 64
2022-01-24 16:19:57 GMT 52.014912 14.820871 34,000 266 425 0
2022-01-24 16:19:54 GMT 52.015274 14.829330 34,000 266 425 0
2022-01-24 16:19:51 GMT 52.015701 14.838920 34,000 266 425 64
2022-01-24 16:19:49 GMT 52.015934 14.843942 34,000 266 425 0
2022-01-24 16:19:46 GMT 52.016354 14.852888 34,000 266 425 0
2022-01-24 16:19:43 GMT 52.016785 14.862442 34,000 266 425 -64
2022-01-24 16:19:40 GMT 52.017288 14.873581 34,000 266 425 0
2022-01-24 16:19:37 GMT 52.017654 14.881134 34,000 266 425 0
2022-01-24 16:19:34 GMT 52.018661 14.903030 34,000 266 425 64
2022-01-24 16:19:31 GMT 52.018661 14.903030 34,000 266 425 64
2022-01-24 16:19:29 GMT 52.018913 14.908761 34,000 266 425 -64
2022-01-24 16:19:26 GMT 52.019394 14.920578 34,000 266 425 -64
2022-01-24 16:19:23 GMT 52.019657 14.926496 34,000 266 425 0
2022-01-24 16:19:20 GMT 52.020081 14.935989 34,000 266 425 0
2022-01-24 16:19:17 GMT 52.020630 14.948730 34,000 266 425 -64
2022-01-24 16:19:14 GMT 52.020916 14.954433 34,000 266 425 0
2022-01-24 16:19:11 GMT 52.021500 14.967804 34,000 266 425 0
2022-01-24 16:19:07 GMT 52.022049 14.980469 34,000 266 425 -64
2022-01-24 16:19:04 GMT 52.022324 14.986801 34,000 266 425 -64
2022-01-24 16:19:01 GMT 52.022690 14.994431 34,000 266 426 0
2022-01-24 16:18:58 GMT 52.023197 15.006539 34,000 266 426 -64
2022-01-24 16:18:55 GMT 52.023560 15.014801 34,000 266 426 0
2022-01-24 16:18:52 GMT 52.024128 15.026864 34,000 266 426 64
2022-01-24 16:18:48 GMT 52.024548 15.037066 34,000 267 425 64
2022-01-24 16:18:45 GMT 52.024933 15.046616 34,000 266 426 0
2022-01-24 16:18:42 GMT 52.025337 15.055978 34,000 266 426 0
2022-01-24 16:18:39 GMT 52.025848 15.067435 34,000 266 426 0
2022-01-24 16:18:36 GMT 52.026352 15.078354 34,000 266 427 0
2022-01-24 16:18:33 GMT 52.026535 15.083466 34,000 266 427 0
2022-01-24 16:18:29 GMT 52.027267 15.099869 34,000 267 425 64
2022-01-24 16:18:26 GMT 52.027634 15.108871 34,000 267 425 0
2022-01-24 16:18:23 GMT 52.027908 15.115204 34,000 267 425 -64
2022-01-24 16:18:20 GMT 52.028412 15.127311 34,000 266 426 0
2022-01-24 16:18:17 GMT 52.028778 15.135574 34,000 266 427 0
2022-01-24 16:18:14 GMT 52.029621 15.155326 34,000 267 427 0
2022-01-24 16:18:11 GMT 52.029621 15.155326 34,000 266 427 0
2022-01-24 16:18:08 GMT 52.030087 15.165527 34,000 266 427 0
2022-01-24 16:18:05 GMT 52.030838 15.184021 34,000 267 426 0
2022-01-24 16:18:02 GMT 52.031342 15.196211 34,000 267 427 0
2022-01-24 16:17:58 GMT 52.031342 15.196211 34,000 267 427 0
2022-01-24 16:17:55 GMT 52.031761 15.206412 34,000 267 427 64
2022-01-24 16:17:52 GMT 52.032181 15.215358 34,000 267 427 0
2022-01-24 16:17:49 GMT 52.032578 15.224915 34,000 267 427 0
2022-01-24 16:17:46 GMT 52.033066 15.237095 34,000 267 427 64
2022-01-24 16:17:43 GMT 52.033356 15.244141 34,000 267 427 0
2022-01-24 16:17:40 GMT 52.033813 15.254135 34,000 267 427 0
2022-01-24 16:17:37 GMT 52.034134 15.261993 34,000 267 427 0
2022-01-24 16:17:34 GMT 52.034592 15.273285 34,000 267 427 -64
2022-01-24 16:17:31 GMT 52.035141 15.286026 34,000 267 427 0
2022-01-24 16:17:28 GMT 52.035461 15.293961 34,000 267 427 64
2022-01-24 16:17:25 GMT 52.035873 15.304031 34,000 267 427 0
2022-01-24 16:17:22 GMT 52.036137 15.311018 34,000 267 427 0
2022-01-24 16:17:19 GMT 52.036976 15.331499 34,000 267 427 -64
2022-01-24 16:17:16 GMT 52.036976 15.331499 34,000 267 427 0
2022-01-24 16:17:12 GMT 52.037628 15.347037 34,000 267 427 0
2022-01-24 16:17:09 GMT 52.037933 15.354080 34,000 267 427 0
2022-01-24 16:17:06 GMT 52.038280 15.362183 34,000 267 427 -64
2022-01-24 16:17:03 GMT 52.038792 15.375052 34,000 267 427 0
2022-01-24 16:17:00 GMT 52.039165 15.384155 34,000 267 428 64
2022-01-24 16:16:56 GMT 52.039631 15.395534 34,000 267 428 0
2022-01-24 16:16:53 GMT 52.040001 15.404794 34,000 267 428 0
2022-01-24 16:16:50 GMT 52.040497 15.416641 34,000 267 428 0
2022-01-24 16:16:47 GMT 52.040886 15.426531 34,000 267 428 0
2022-01-24 16:16:44 GMT 52.041275 15.436096 34,000 267 428 64
2022-01-24 16:16:41 GMT 52.041630 15.445757 34,000 267 428 0
2022-01-24 16:16:37 GMT 52.042145 15.458313 34,000 267 428 -64
2022-01-24 16:16:34 GMT 52.042423 15.464983 34,000 267 428 0
2022-01-24 16:16:31 GMT 52.042793 15.475185 34,000 267 428 0
2022-01-24 16:16:28 GMT 52.043152 15.483551 34,000 267 428 0
2022-01-24 16:16:25 GMT 52.043564 15.493774 34,000 267 427 64
2022-01-24 16:16:22 GMT 52.044022 15.505295 34,000 267 427 64
2022-01-24 16:16:19 GMT 52.044296 15.512924 34,000 267 428 0
2022-01-24 16:16:16 GMT 52.044662 15.521927 34,000 267 428 0
2022-01-24 16:16:13 GMT 52.045124 15.532785 34,000 267 428 0
2022-01-24 16:16:10 GMT 52.045486 15.542450 34,000 267 428 0
2022-01-24 16:16:07 GMT 52.046036 15.556259 34,000 267 428 -64
2022-01-24 16:16:04 GMT 52.046288 15.563232 34,000 267 428 0
2022-01-24 16:16:01 GMT 52.046566 15.569981 34,000 267 428 0
2022-01-24 16:15:58 GMT 52.047310 15.589286 34,000 267 428 -64
2022-01-24 16:15:55 GMT 52.047310 15.589286 34,000 267 428 0
2022-01-24 16:15:52 GMT 52.047825 15.601842 34,000 267 428 -64
2022-01-24 16:15:49 GMT 52.048187 15.611649 34,000 267 427 0
2022-01-24 16:15:46 GMT 52.048519 15.620047 34,000 267 428 -64
2022-01-24 16:15:43 GMT 52.048874 15.628357 34,000 267 428 -64
2022-01-24 16:15:40 GMT 52.049240 15.637283 34,000 267 428 0
2022-01-24 16:15:37 GMT 52.049744 15.651398 34,000 267 428 0
2022-01-24 16:15:34 GMT 52.049915 15.655910 34,000 267 427 0
2022-01-24 16:15:31 GMT 52.050800 15.678746 34,000 267 427 0
2022-01-24 16:15:28 GMT 52.050800 15.678746 34,000 267 427 64
2022-01-24 16:15:24 GMT 52.051128 15.687849 34,000 267 426 64
2022-01-24 16:15:21 GMT 52.051575 15.699997 34,000 267 425 64
2022-01-24 16:15:18 GMT 52.051987 15.711441 34,000 267 424 0
2022-01-24 16:15:15 GMT 52.052307 15.720062 34,000 267 423 -64
2022-01-24 16:15:12 GMT 52.052711 15.729754 34,000 267 423 -64
2022-01-24 16:15:09 GMT 52.052994 15.738068 34,000 267 422 -64
2022-01-24 16:15:06 GMT 52.053360 15.746918 34,000 267 422 -64
2022-01-24 16:15:03 GMT 52.053688 15.756356 34,000 267 422 0
2022-01-24 16:15:00 GMT 52.054153 15.768912 34,000 267 422 0
2022-01-24 16:14:57 GMT 52.054386 15.775190 34,000 267 423 0
2022-01-24 16:14:54 GMT 52.054710 15.783901 34,000 267 423 0
2022-01-24 16:14:51 GMT 52.055412 15.801950 34,000 267 423 0
2022-01-24 16:14:48 GMT 52.055412 15.801950 34,000 267 423 0
2022-01-24 16:14:45 GMT 52.055969 15.817095 34,000 267 423 0
2022-01-24 16:14:42 GMT 52.056656 15.835495 34,000 267 423 64
2022-01-24 16:14:39 GMT 52.056656 15.835495 34,000 267 423 0
2022-01-24 16:14:36 GMT 52.056931 15.843124 34,000 267 423 64
2022-01-24 16:14:33 GMT 52.057274 15.852565 34,000 267 423 -64
2022-01-24 16:14:30 GMT 52.057644 15.862688 34,000 267 423 -64
2022-01-24 16:14:27 GMT 52.057972 15.871556 34,000 267 423 -64
2022-01-24 16:14:23 GMT 52.058441 15.884628 34,000 267 423 64
2022-01-24 16:14:20 GMT 52.058716 15.892487 34,000 267 423 0
2022-01-24 16:14:17 GMT 52.059082 15.902405 34,000 267 422 0
2022-01-24 16:14:14 GMT 52.059448 15.912781 34,000 267 423 64
2022-01-24 16:14:11 GMT 52.060158 15.932452 34,000 267 423 0
2022-01-24 16:14:08 GMT 52.060158 15.932452 34,000 267 423 0
2022-01-24 16:14:05 GMT 52.060436 15.940063 34,000 267 423 -64
2022-01-24 16:14:02 GMT 52.060776 15.949402 34,000 267 423 -64
2022-01-24 16:13:59 GMT 52.061089 15.958897 34,000 267 423 -64
2022-01-24 16:13:56 GMT 52.061417 15.967922 34,000 267 423 0
2022-01-24 16:13:53 GMT 52.061787 15.978045 34,000 267 422 0
2022-01-24 16:13:50 GMT 52.062160 15.988089 34,000 267 422 64
2022-01-24 16:13:47 GMT 52.062489 15.997035 34,000 267 422 64
2022-01-24 16:13:44 GMT 52.063137 16.016026 34,000 267 422 0
2022-01-24 16:13:41 GMT 52.063137 16.016026 34,000 267 422 64
2022-01-24 16:13:38 GMT 52.063477 16.025543 34,000 267 422 64
2022-01-24 16:13:35 GMT 52.063751 16.033173 34,000 267 422 64
2022-01-24 16:13:32 GMT 52.064209 16.046753 34,000 267 422 -64
2022-01-24 16:13:29 GMT 52.064438 16.053391 34,000 267 422 -64
2022-01-24 16:13:26 GMT 52.064770 16.062876 34,000 267 422 0
2022-01-24 16:13:22 GMT 52.065216 16.074905 34,000 267 423 64
2022-01-24 16:13:19 GMT 52.065651 16.088223 34,000 267 423 64
2022-01-24 16:13:15 GMT 52.066315 16.107788 34,000 267 423 64
2022-01-24 16:13:12 GMT 52.066315 16.107788 34,000 267 423 0
2022-01-24 16:13:09 GMT 52.066677 16.117256 34,000 267 424 0
2022-01-24 16:13:06 GMT 52.067368 16.138229 34,000 267 424 -64
2022-01-24 16:13:03 GMT 52.067368 16.138229 34,000 267 424 -64
2022-01-24 16:13:00 GMT 52.067513 16.142683 34,000 267 424 -64
2022-01-24 16:12:57 GMT 52.067963 16.155777 34,000 267 425 -64
2022-01-24 16:12:54 GMT 52.068398 16.167873 34,000 268 427 -64
2022-01-24 16:12:51 GMT 52.068630 16.174465 34,000 267 425 0
2022-01-24 16:12:48 GMT 52.068863 16.182156 34,000 267 426 64
2022-01-24 16:12:45 GMT 52.069244 16.193008 34,000 267 426 0
2022-01-24 16:12:41 GMT 52.069748 16.207659 34,000 267 426 0
2022-01-24 16:12:38 GMT 52.069981 16.215271 34,000 267 426 0
2022-01-24 16:12:35 GMT 52.070343 16.226196 34,000 267 426 -64
2022-01-24 16:12:31 GMT 52.070847 16.240234 34,000 267 426 0
2022-01-24 16:12:28 GMT 52.071053 16.247288 34,000 267 426 0
2022-01-24 16:12:25 GMT 52.071396 16.256943 34,000 267 425 0
2022-01-24 16:12:22 GMT 52.071705 16.266357 34,000 267 426 0
2022-01-24 16:12:19 GMT 52.072124 16.279463 34,000 267 426 0
2022-01-24 16:12:16 GMT 52.072815 16.300507 34,000 267 426 64
2022-01-24 16:12:12 GMT 52.072815 16.300507 34,000 267 425 0
2022-01-24 16:12:09 GMT 52.073135 16.310501 34,000 267 425 0
2022-01-24 16:12:06 GMT 52.073334 16.316423 34,000 267 426 64
2022-01-24 16:12:03 GMT 52.073753 16.328979 34,000 267 425 64
2022-01-24 16:12:00 GMT 52.074032 16.336826 34,000 267 426 0
2022-01-24 16:11:56 GMT 52.074738 16.359100 34,000 267 426 -64
2022-01-24 16:11:53 GMT 52.074738 16.359100 34,000 268 426 -64
2022-01-24 16:11:50 GMT 52.075054 16.368687 34,000 268 426 -64
2022-01-24 16:11:47 GMT 52.075287 16.376801 34,000 268 426 -64
2022-01-24 16:11:44 GMT 52.075615 16.386580 34,000 267 426 -64
2022-01-24 16:11:41 GMT 52.075974 16.397400 34,000 268 427 0
2022-01-24 16:11:38 GMT 52.076267 16.405727 34,000 268 427 0
2022-01-24 16:11:35 GMT 52.076591 16.416948 34,000 268 427 0
2022-01-24 16:11:32 GMT 52.076935 16.426849 34,000 268 427 0
2022-01-24 16:11:28 GMT 52.077393 16.442184 34,000 268 427 0
2022-01-24 16:11:25 GMT 52.077568 16.447632 34,000 268 427 0
2022-01-24 16:11:22 GMT 52.077896 16.458147 34,000 268 427 64
2022-01-24 16:11:19 GMT 52.078220 16.468191 34,000 268 427 -64
2022-01-24 16:11:16 GMT 52.078453 16.476118 34,000 268 427 0
2022-01-24 16:11:13 GMT 52.078720 16.484375 34,000 268 427 -64
2022-01-24 16:11:10 GMT 52.079060 16.495264 34,000 268 427 0
2022-01-24 16:11:07 GMT 52.079479 16.508057 34,000 268 427 -64
2022-01-24 16:11:04 GMT 52.079773 16.517639 34,000 268 427 64
2022-01-24 16:11:01 GMT 52.080093 16.527863 34,000 268 427 64
2022-01-24 16:10:58 GMT 52.080315 16.536228 34,000 268 427 64
2022-01-24 16:10:55 GMT 52.080688 16.548004 34,000 268 427 0
2022-01-24 16:10:52 GMT 52.080963 16.556015 34,000 268 427 -64
2022-01-24 16:10:49 GMT 52.081192 16.563721 34,000 268 427 64
2022-01-24 16:10:46 GMT 52.081478 16.573347 34,000 268 427 64
2022-01-24 16:10:43 GMT 52.081787 16.582947 34,000 268 427 64
2022-01-24 16:10:39 GMT 52.082245 16.598358 34,000 268 427 64
2022-01-24 16:10:36 GMT 52.082504 16.607954 34,000 268 427 -64
2022-01-24 16:10:33 GMT 52.082748 16.614761 34,000 268 427 -64
2022-01-24 16:10:30 GMT 52.083015 16.624590 34,000 268 427 0
2022-01-24 16:10:27 GMT 52.083389 16.636047 34,000 268 427 64
2022-01-24 16:10:24 GMT 52.083622 16.643738 34,000 268 428 -64
2022-01-24 16:10:21 GMT 52.083996 16.656450 34,000 268 428 -64
2022-01-24 16:10:18 GMT 52.084179 16.662964 34,000 268 428 -64
2022-01-24 16:10:15 GMT 52.084396 16.671295 34,000 268 428 0
2022-01-24 16:10:12 GMT 52.084644 16.679680 34,000 268 428 64
2022-01-24 16:10:09 GMT 52.085037 16.691818 34,000 268 428 64
2022-01-24 16:10:06 GMT 52.085297 16.701416 34,000 268 428 64
2022-01-24 16:10:03 GMT 52.085861 16.719818 34,000 268 428 -64
2022-01-24 16:10:00 GMT 52.085861 16.719818 34,000 268 428 64
2022-01-24 16:09:57 GMT 52.086273 16.734009 34,000 268 428 0
2022-01-24 16:09:54 GMT 52.086739 16.750071 34,000 268 428 -64
2022-01-24 16:09:51 GMT 52.086739 16.750071 34,000 268 428 -64
2022-01-24 16:09:48 GMT 52.087051 16.760941 34,000 268 428 -64
2022-01-24 16:09:44 GMT 52.087391 16.773220 34,000 268 428 -64
2022-01-24 16:09:41 GMT 52.087692 16.782837 34,000 268 428 -64
2022-01-24 16:09:38 GMT 52.087921 16.791763 34,000 268 428 -64
2022-01-24 16:09:35 GMT 52.088230 16.801470 34,000 268 428 64
2022-01-24 16:09:32 GMT 52.088470 16.810913 34,000 268 428 64
2022-01-24 16:09:29 GMT 52.088791 16.820618 34,000 268 428 64
2022-01-24 16:09:26 GMT 52.089020 16.829721 34,000 268 428 64
2022-01-24 16:09:23 GMT 52.089294 16.839294 34,000 268 428 0
2022-01-24 16:09:20 GMT 52.089581 16.848948 34,000 268 428 -64
2022-01-24 16:09:17 GMT 52.089798 16.856995 34,000 268 428 -64
2022-01-24 16:09:14 GMT 52.090046 16.866682 34,000 268 429 -64
2022-01-24 16:09:10 GMT 52.090511 16.882063 34,000 268 428 64
2022-01-24 16:09:07 GMT 52.090790 16.892578 34,000 268 428 64
2022-01-24 16:09:04 GMT 52.090977 16.898855 34,000 268 428 0
2022-01-24 16:09:01 GMT 52.091209 16.907959 34,000 268 427 64
2022-01-24 16:08:58 GMT 52.091534 16.918240 34,000 268 427 64
2022-01-24 16:08:55 GMT 52.092133 16.940613 34,000 268 427 0
2022-01-24 16:08:51 GMT 52.092133 16.940613 34,000 268 427 -64
2022-01-24 16:08:48 GMT 52.092464 16.952768 34,000 268 426 64
2022-01-24 16:08:45 GMT 52.092636 16.959839 34,000 268 426 64
2022-01-24 16:08:41 GMT 52.093071 16.975840 34,000 268 426 64
2022-01-24 16:08:38 GMT 52.093212 16.982195 34,000 268 426 64
2022-01-24 16:08:35 GMT 52.093597 16.995621 34,000 268 431 -128
2022-01-24 16:08:32 GMT 52.093769 17.002678 34,000 268 427 0
2022-01-24 16:08:29 GMT 52.094009 17.012253 34,000 268 427 0
2022-01-24 16:08:26 GMT 52.094330 17.023544 34,000 268 428 0
2022-01-24 16:08:23 GMT 52.094559 17.031479 34,000 268 429 0
2022-01-24 16:08:20 GMT 52.094887 17.043562 34,000 268 434 -64
2022-01-24 16:08:17 GMT 52.095154 17.053375 34,000 268 431 -128
2022-01-24 16:08:14 GMT 52.095383 17.062378 34,000 268 432 -128
2022-01-24 16:08:11 GMT 52.095863 17.079973 34,000 268 434 -64
2022-01-24 16:08:08 GMT 52.095863 17.079973 34,000 268 434 -64
2022-01-24 16:08:05 GMT 52.096115 17.089691 34,000 268 433 64
2022-01-24 16:08:02 GMT 52.096329 17.097788 34,000 268 433 64
2022-01-24 16:07:59 GMT 52.096619 17.110443 34,000 268 433 64
2022-01-24 16:07:56 GMT 52.097122 17.128372 34,000 268 433 0
2022-01-24 16:07:53 GMT 52.097122 17.128372 34,000 268 434 -64
2022-01-24 16:07:50 GMT 52.097351 17.137756 34,000 268 434 0
2022-01-24 16:07:47 GMT 52.097679 17.149895 34,000 268 434 64
2022-01-24 16:07:44 GMT 52.097820 17.156643 34,000 268 435 0
2022-01-24 16:07:41 GMT 52.098129 17.167664 34,000 268 434 -64
2022-01-24 16:07:38 GMT 52.098404 17.179413 34,000 268 435 0
2022-01-24 16:07:34 GMT 52.098816 17.193756 34,000 268 435 -64
2022-01-24 16:07:31 GMT 52.098953 17.200317 34,000 268 435 -64
2022-01-24 16:07:28 GMT 52.099171 17.208750 34,000 268 434 0
2022-01-24 16:07:25 GMT 52.099411 17.218475 34,000 268 434 0
2022-01-24 16:07:22 GMT 52.099728 17.230879 34,000 268 434 64
2022-01-24 16:07:19 GMT 52.100101 17.247829 34,000 268 434 64
2022-01-24 16:07:16 GMT 52.100101 17.247829 34,000 268 434 0
2022-01-24 16:07:13 GMT 52.100372 17.257538 34,000 268 434 -64
2022-01-24 16:07:10 GMT 52.100658 17.269880 34,000 268 434 -64
2022-01-24 16:07:07 GMT 52.100876 17.278366 34,000 268 434 -64
2022-01-24 16:07:04 GMT 52.101124 17.289419 34,000 268 433 128
2022-01-24 16:07:01 GMT 52.101334 17.297592 34,000 268 433 64
2022-01-24 16:06:58 GMT 52.101562 17.306900 34,000 268 434 0
2022-01-24 16:06:55 GMT 52.101871 17.319241 34,000 268 433 64
2022-01-24 16:06:52 GMT 52.102009 17.324497 34,000 268 434 -64
2022-01-24 16:06:49 GMT 52.102242 17.334856 34,000 268 434 -64
2022-01-24 16:06:45 GMT 52.102570 17.348557 34,000 268 434 -64
2022-01-24 16:06:42 GMT 52.103081 17.368679 34,000 268 434 -64
2022-01-24 16:06:39 GMT 52.103302 17.378464 34,000 268 434 64
2022-01-24 16:06:36 GMT 52.103302 17.378464 34,000 268 434 64
2022-01-24 16:06:33 GMT 52.103500 17.388218 34,000 268 435 64
2022-01-24 16:06:30 GMT 52.103760 17.397995 34,000 268 435 64
2022-01-24 16:06:27 GMT 52.103943 17.406921 34,000 268 435 64
2022-01-24 16:06:24 GMT 52.104198 17.416941 34,000 268 435 0
2022-01-24 16:06:21 GMT 52.104431 17.427378 34,000 268 436 0
2022-01-24 16:06:18 GMT 52.104630 17.435837 34,000 268 436 0
2022-01-24 16:06:15 GMT 52.104942 17.448252 34,000 268 436 -64
2022-01-24 16:06:12 GMT 52.105221 17.460022 34,000 268 436 -64
2022-01-24 16:06:09 GMT 52.105362 17.467869 34,000 268 436 64
2022-01-24 16:06:04 GMT 52.105782 17.484819 33,650 268 435 384
2022-01-24 16:06:01 GMT 52.106014 17.495256 34,000 268 435 384
2022-01-24 16:05:57 GMT 52.106480 17.516130 33,850 268 435 1024
2022-01-24 16:05:54 GMT 52.106480 17.516130 33,925 268 434 1024
2022-01-24 16:05:50 GMT 52.106758 17.528999 33,825 268 435 1024
2022-01-24 16:05:47 GMT 52.107082 17.542261 33,800 268 435 1024
2022-01-24 16:05:44 GMT 52.107239 17.550735 33,725 268 435 1024
2022-01-24 16:05:41 GMT 52.107376 17.557220 33,725 268 435 1024
2022-01-24 16:05:38 GMT 52.107643 17.568316 33,650 268 436 1024
2022-01-24 16:05:34 GMT 52.107967 17.582676 33,425 269 436 1024
2022-01-24 16:05:31 GMT 52.108246 17.594370 33,500 268 436 1024
2022-01-24 16:05:28 GMT 52.108387 17.600882 33,475 269 436 960
2022-01-24 16:05:25 GMT 52.108612 17.612152 33,375 269 436 1024
2022-01-24 16:05:22 GMT 52.108841 17.623672 33,350 269 437 960
2022-01-24 16:05:19 GMT 52.109272 17.642944 33,300 269 437 1024
2022-01-24 16:05:16 GMT 52.109272 17.642944 33,275 269 437 1024
2022-01-24 16:05:12 GMT 52.109482 17.652588 33,225 269 437 1024
2022-01-24 16:05:09 GMT 52.109692 17.662327 33,100 269 437 1024
2022-01-24 16:05:06 GMT 52.110107 17.683594 33,125 269 437 1024
2022-01-24 16:05:03 GMT 52.110107 17.683594 33,050 269 438 1024
2022-01-24 16:05:00 GMT 52.110481 17.700386 33,025 269 438 1024
2022-01-24 16:04:57 GMT 52.110481 17.700386 33,000 269 438 1024
2022-01-24 16:04:53 GMT 52.110760 17.714983 32,875 269 438 960
2022-01-24 16:04:50 GMT 52.110992 17.724838 32,825 269 438 960
2022-01-24 16:04:47 GMT 52.111179 17.734680 32,200 269 439 1088
2022-01-24 16:04:44 GMT 52.111462 17.746531 32,725 269 439 1152
2022-01-24 16:04:41 GMT 52.111816 17.764511 32,675 269 439 1152
2022-01-24 16:04:38 GMT 52.111816 17.764511 32,625 269 439 1152
2022-01-24 16:04:35 GMT 52.112045 17.776337 32,525 269 440 1152
2022-01-24 16:04:32 GMT 52.112457 17.794800 32,500 269 440 1088
2022-01-24 16:04:29 GMT 52.112457 17.794800 32,450 269 440 1088
2022-01-24 16:04:26 GMT 52.112595 17.802734 32,425 269 440 1088
2022-01-24 16:04:22 GMT 52.112949 17.819275 32,350 269 441 1024
2022-01-24 16:04:19 GMT 52.113136 17.829790 32,200 269 441 896
2022-01-24 16:04:16 GMT 52.113274 17.836382 32,225 269 441 896
2022-01-24 16:04:13 GMT 52.113506 17.848076 32,200 269 441 896
2022-01-24 16:04:10 GMT 52.113647 17.855606 32,150 269 441 896
2022-01-24 16:04:07 GMT 52.113876 17.867508 32,125 269 441 896
2022-01-24 16:04:04 GMT 52.114067 17.877424 32,075 269 441 896
2022-01-24 16:04:01 GMT 52.114254 17.885349 32,025 269 441 960
2022-01-24 16:03:58 GMT 52.114517 17.899246 31,975 269 441 960
2022-01-24 16:03:55 GMT 52.114624 17.903870 31,950 269 441 832
2022-01-24 16:03:52 GMT 52.114857 17.916897 31,900 269 441 704
2022-01-24 16:03:49 GMT 52.115089 17.930159 31,875 269 441 704
2022-01-24 16:03:46 GMT 52.115231 17.936672 31,850 269 441 704
2022-01-24 16:03:42 GMT 52.115463 17.948835 31,775 269 440 704
2022-01-24 16:03:39 GMT 52.115650 17.960764 31,725 269 440 768
2022-01-24 16:03:36 GMT 52.115883 17.971357 31,675 269 440 704
2022-01-24 16:03:31 GMT 52.116165 17.986145 31,650 269 440 640
2022-01-24 16:03:28 GMT 52.116348 17.996389 31,625 269 439 640
2022-01-24 16:03:25 GMT 52.116486 18.002981 31,600 269 439 640
2022-01-24 16:03:22 GMT 52.116718 18.016167 31,550 269 439 640
2022-01-24 16:03:19 GMT 52.116898 18.025742 31,500 269 438 704
2022-01-24 16:03:16 GMT 52.117092 18.035864 31,475 269 438 704
2022-01-24 16:03:13 GMT 52.117264 18.047028 31,400 269 438 704
2022-01-24 16:03:10 GMT 52.117401 18.054962 31,400 269 438 704
2022-01-24 16:03:07 GMT 52.117558 18.063484 31,400 269 438 704
2022-01-24 16:03:04 GMT 52.117767 18.074646 31,375 269 437 768
2022-01-24 16:03:00 GMT 52.118042 18.089066 31,275 269 437 768
2022-01-24 16:02:57 GMT 52.118134 18.095398 31,250 269 436 768
2022-01-24 16:02:54 GMT 52.118546 18.117676 31,225 269 436 832
2022-01-24 16:02:51 GMT 52.118546 18.117676 31,125 269 435 768
2022-01-24 16:02:48 GMT 52.118721 18.128775 31,050 269 435 768
2022-01-24 16:02:43 GMT 52.119003 18.145294 31,050 269 435 832
2022-01-24 16:02:39 GMT 52.119186 18.155144 30,825 269 433 1088
2022-01-24 16:02:36 GMT 52.119328 18.165581 30,975 269 435 832
2022-01-24 16:02:33 GMT 52.119465 18.174683 30,975 269 435 832
2022-01-24 16:02:29 GMT 52.119736 18.189468 30,900 269 434 768
2022-01-24 16:02:26 GMT 52.119873 18.197479 30,875 269 434 768
2022-01-24 16:02:23 GMT 52.120026 18.207170 30,850 269 434 704
2022-01-24 16:02:19 GMT 52.120304 18.224199 30,775 269 433 768
2022-01-24 16:02:16 GMT 52.120422 18.229752 30,775 269 433 832
2022-01-24 16:02:13 GMT 52.120605 18.241653 30,650 269 433 832
2022-01-24 16:02:10 GMT 52.120743 18.250809 30,675 269 433 960
2022-01-24 16:02:07 GMT 52.120926 18.260956 30,525 269 433 1088
2022-01-24 16:02:04 GMT 52.121098 18.270891 30,525 269 433 1088
2022-01-24 16:02:01 GMT 52.121246 18.280640 30,500 269 433 1088
2022-01-24 16:01:57 GMT 52.121468 18.292942 30,450 269 433 1088
2022-01-24 16:01:53 GMT 52.121658 18.303986 29,600 269 432 896
2022-01-24 16:01:50 GMT 52.121887 18.317505 30,300 269 432 896
2022-01-24 16:01:47 GMT 52.121979 18.324509 30,200 269 431 704
2022-01-24 16:01:44 GMT 52.122120 18.334221 30,225 269 432 704
2022-01-24 16:01:41 GMT 52.122299 18.346786 30,200 269 431 704
2022-01-24 16:01:38 GMT 52.122391 18.353271 30,150 269 431 640
2022-01-24 16:01:35 GMT 52.122540 18.362705 30,150 269 430 640
2022-01-24 16:01:32 GMT 52.122711 18.371353 30,125 269 430 704
2022-01-24 16:01:29 GMT 52.122818 18.380989 30,050 269 429 832
2022-01-24 16:01:26 GMT 52.123005 18.392605 29,800 269 425 832
2022-01-24 16:01:23 GMT 52.123142 18.402884 29,975 269 429 896
2022-01-24 16:01:20 GMT 52.123329 18.414497 29,925 269 428 832
2022-01-24 16:01:16 GMT 52.123470 18.424780 29,850 269 428 768
2022-01-24 16:01:13 GMT 52.123657 18.436157 29,850 269 428 704
2022-01-24 16:01:07 GMT 52.123947 18.454895 29,775 269 427 640
2022-01-24 16:01:03 GMT 52.124260 18.478613 29,725 269 426 704
2022-01-24 16:01:00 GMT 52.124260 18.478613 29,675 269 425 832
2022-01-24 16:00:57 GMT 52.124355 18.484968 29,650 269 425 832
2022-01-24 16:00:54 GMT 52.124542 18.499016 29,600 269 424 768
2022-01-24 16:00:51 GMT 52.124634 18.504116 29,575 269 424 704
2022-01-24 16:00:48 GMT 52.124771 18.512344 29,550 269 423 704
2022-01-24 16:00:45 GMT 52.124912 18.521772 29,500 269 423 704
2022-01-24 16:00:42 GMT 52.125092 18.535004 29,475 269 422 832
2022-01-24 16:00:39 GMT 52.125229 18.545380 29,425 269 421 960
2022-01-24 16:00:35 GMT 52.125332 18.553555 29,375 269 421 896
2022-01-24 16:00:32 GMT 52.125458 18.564301 29,325 269 421 832
2022-01-24 16:00:29 GMT 52.125595 18.574371 29,275 269 420 896
2022-01-24 16:00:26 GMT 52.125778 18.585739 29,225 269 420 896
2022-01-24 16:00:22 GMT 52.125938 18.598989 29,175 269 419 896
2022-01-24 16:00:19 GMT 52.126171 18.617746 29,100 269 418 960
2022-01-24 16:00:15 GMT 52.126171 18.617746 29,050 269 418 1024
2022-01-24 16:00:11 GMT 52.126328 18.629684 28,975 269 418 1024
2022-01-24 16:00:08 GMT 52.126419 18.640671 28,975 269 417 1024
2022-01-24 16:00:05 GMT 52.126495 18.647488 28,900 269 417 1088
2022-01-24 16:00:02 GMT 52.126869 18.674168 28,675 269 417 1280
2022-01-24 15:59:58 GMT 52.126869 18.674168 28,750 269 417 1280
2022-01-24 15:59:55 GMT 52.126923 18.681030 28,725 269 417 1280
2022-01-24 15:59:51 GMT 52.127102 18.693865 28,625 269 417 1280
2022-01-24 15:59:47 GMT 52.127243 18.705826 28,475 269 417 1280
2022-01-24 15:59:44 GMT 52.127380 18.716621 28,475 269 417 1280
2022-01-24 15:59:40 GMT 52.127613 18.736712 26,750 270 418 1280
2022-01-24 15:59:37 GMT 52.127613 18.736712 28,300 270 416 1344
2022-01-24 15:59:34 GMT 52.127701 18.747253 28,225 270 416 1344
2022-01-24 15:59:31 GMT 52.127838 18.758545 28,000 269 417 1600
2022-01-24 15:59:27 GMT 52.127975 18.768539 28,050 269 417 1600
2022-01-24 15:59:24 GMT 52.128078 18.777597 27,975 269 417 1536
2022-01-24 15:59:21 GMT 52.128220 18.788975 27,900 269 417 1536
2022-01-24 15:59:17 GMT 52.128342 18.802338 27,800 270 417 1472
2022-01-24 15:59:14 GMT 52.128387 18.808594 27,775 270 418 1472
2022-01-24 15:59:10 GMT 52.128525 18.822403 27,675 270 418 1280
2022-01-24 15:59:06 GMT 52.128662 18.835831 27,550 270 417 1152
2022-01-24 15:59:03 GMT 52.128777 18.846809 27,500 270 417 1152
2022-01-24 15:59:00 GMT 52.128868 18.860308 27,350 270 415 960
2022-01-24 15:58:57 GMT 52.128868 18.860308 27,350 270 415 960
2022-01-24 15:58:54 GMT 52.128963 18.872786 27,375 270 415 960
2022-01-24 15:58:51 GMT 52.129009 18.880476 27,325 270 415 768
2022-01-24 15:58:48 GMT 52.129120 18.892365 27,275 269 414 640
2022-01-24 15:58:45 GMT 52.129242 18.901665 27,250 269 412 768
2022-01-24 15:58:42 GMT 52.129475 18.917751 27,200 270 411 960
2022-01-24 15:58:39 GMT 52.129475 18.917751 27,200 270 411 960
2022-01-24 15:58:35 GMT 52.129566 18.929836 27,125 270 410 1152
2022-01-24 15:58:32 GMT 52.129623 18.940430 27,050 270 409 1152
2022-01-24 15:58:29 GMT 52.129662 18.948357 26,900 271 408 1344
2022-01-24 15:58:26 GMT 52.129578 18.971176 26,925 271 408 1280
2022-01-24 15:58:23 GMT 52.129578 18.971176 26,850 271 407 1344
2022-01-24 15:58:19 GMT 52.129520 18.980373 26,800 271 407 1344
2022-01-24 15:58:16 GMT 52.129395 18.990707 26,700 272 406 1344
2022-01-24 15:58:13 GMT 52.129288 18.998501 26,650 272 406 1344
2022-01-24 15:58:09 GMT 52.129120 19.010086 26,575 272 405 1280
2022-01-24 15:58:06 GMT 52.128963 19.018040 26,525 273 405 1280
2022-01-24 15:58:03 GMT 52.128635 19.029028 26,425 274 403 1216
2022-01-24 15:58:00 GMT 52.128296 19.039307 26,350 274 402 1216
2022-01-24 15:57:57 GMT 52.127975 19.048920 26,300 274 402 1216
2022-01-24 15:57:54 GMT 52.127747 19.055023 26,225 274 402 1216
2022-01-24 15:57:51 GMT 52.127148 19.072500 26,100 274 400 1152
2022-01-24 15:57:48 GMT 52.127148 19.072500 26,150 274 401 1152
2022-01-24 15:57:44 GMT 52.126648 19.086304 26,050 274 400 1152
2022-01-24 15:57:41 GMT 52.126373 19.094772 26,000 274 399 1216
2022-01-24 15:57:38 GMT 52.126053 19.103165 25,925 274 399 1280
2022-01-24 15:57:34 GMT 52.125240 19.126570 25,825 274 398 1344
2022-01-24 15:57:30 GMT 52.125240 19.126570 25,775 274 398 1344
2022-01-24 15:57:27 GMT 52.124821 19.137085 25,725 274 397 1344
2022-01-24 15:57:24 GMT 52.124039 19.159088 25,600 274 397 1344
2022-01-24 15:57:20 GMT 52.124039 19.159088 25,550 274 396 1408
2022-01-24 15:57:16 GMT 52.123627 19.171219 25,425 274 396 1408
2022-01-24 15:57:13 GMT 52.123398 19.178314 25,050 274 389 1472
2022-01-24 15:57:10 GMT 52.122986 19.188995 25,300 274 395 1280
2022-01-24 15:57:07 GMT 52.122772 19.195312 25,275 274 395 1280
2022-01-24 15:57:03 GMT 52.122025 19.217148 25,150 274 394 1280
2022-01-24 15:57:00 GMT 52.122025 19.217148 24,025 274 393 1152
2022-01-24 15:56:57 GMT 52.121700 19.226152 25,075 274 393 1152
2022-01-24 15:56:54 GMT 52.121422 19.233372 25,000 274 392 1088
2022-01-24 15:56:51 GMT 52.121063 19.243393 24,950 274 392 1152
2022-01-24 15:56:48 GMT 52.120743 19.251633 24,850 274 391 1216
2022-01-24 15:56:44 GMT 52.120285 19.264526 24,675 274 389 1408
2022-01-24 15:56:41 GMT 52.119980 19.273315 24,750 274 390 1344
2022-01-24 15:56:37 GMT 52.119461 19.287720 24,650 274 388 1472
2022-01-24 15:56:32 GMT 52.119095 19.298096 24,525 274 388 1472
2022-01-24 15:56:29 GMT 52.118301 19.319929 24,375 274 388 1408
2022-01-24 15:56:26 GMT 52.118301 19.319929 24,375 274 388 1408
2022-01-24 15:56:23 GMT 52.118088 19.326324 24,325 274 388 1344
2022-01-24 15:56:19 GMT 52.117722 19.335632 24,300 274 387 1344
2022-01-24 15:56:16 GMT 52.117401 19.344940 24,150 274 387 1344
2022-01-24 15:56:13 GMT 52.117138 19.353437 24,100 274 386 1344
2022-01-24 15:56:10 GMT 52.116806 19.362411 24,025 274 385 1536
2022-01-24 15:56:07 GMT 52.116486 19.371094 23,950 275 383 1536
2022-01-24 15:56:04 GMT 52.116211 19.378586 23,875 274 384 1536
2022-01-24 15:56:01 GMT 52.115707 19.391174 23,800 275 383 1536
2022-01-24 15:55:58 GMT 52.115433 19.396744 23,575 273 384 1728
2022-01-24 15:55:55 GMT 52.115158 19.403687 23,650 273 384 1664
2022-01-24 15:55:52 GMT 52.114746 19.415436 23,575 273 385 1664
2022-01-24 15:55:48 GMT 52.114532 19.425241 23,475 272 385 1600
2022-01-24 15:55:44 GMT 52.114346 19.439131 23,350 271 386 1472
2022-01-24 15:55:40 GMT 52.114346 19.449411 23,000 270 386 1472
2022-01-24 15:55:36 GMT 52.114426 19.460449 23,175 269 386 1536
2022-01-24 15:55:33 GMT 52.114609 19.471970 23,050 268 386 1408
2022-01-24 15:55:30 GMT 52.114792 19.479065 22,950 267 386 1344
2022-01-24 15:55:26 GMT 52.115135 19.488960 22,825 265 386 1408
2022-01-24 15:55:23 GMT 52.115616 19.498749 22,875 265 386 1408
2022-01-24 15:55:20 GMT 52.115974 19.504971 22,800 265 387 1408
2022-01-24 15:55:17 GMT 52.116577 19.513779 22,525 264 386 1536
2022-01-24 15:55:13 GMT 52.117512 19.527100 22,475 264 385 1536
2022-01-24 15:55:10 GMT 52.118210 19.536282 22,550 264 385 1472
2022-01-24 15:55:07 GMT 52.118862 19.545462 22,475 264 385 1536
2022-01-24 15:55:04 GMT 52.119415 19.552841 22,375 264 384 1472
2022-01-24 15:55:01 GMT 52.120148 19.563065 22,325 264 384 1408
2022-01-24 15:54:58 GMT 52.120605 19.569931 22,250 264 383 1472
2022-01-24 15:54:54 GMT 52.121521 19.582443 22,100 264 382 1600
2022-01-24 15:54:51 GMT 52.122120 19.590977 22,025 264 381 1664
2022-01-24 15:54:48 GMT 52.122726 19.599138 22,000 264 381 1600
2022-01-24 15:54:44 GMT 52.123444 19.608841 21,625 264 380 1472
2022-01-24 15:54:41 GMT 52.124725 19.626923 21,800 264 379 1408
2022-01-24 15:54:38 GMT 52.125332 19.635471 21,675 264 378 1536
2022-01-24 15:54:35 GMT 52.125332 19.635471 21,675 264 378 1536
2022-01-24 15:54:31 GMT 52.126122 19.646538 21,525 264 377 1664
2022-01-24 15:54:28 GMT 52.126637 19.653521 21,100 264 376 1600
2022-01-24 15:54:25 GMT 52.127335 19.663408 21,300 264 375 1792
2022-01-24 15:54:21 GMT 52.128124 19.674788 21,250 264 375 1728
2022-01-24 15:54:18 GMT 52.128662 19.682083 21,175 264 375 1728
2022-01-24 15:54:15 GMT 52.129337 19.691502 21,125 264 374 1728
2022-01-24 15:54:11 GMT 52.130127 19.702644 20,975 264 374 1792
2022-01-24 15:54:08 GMT 52.130676 19.710922 20,925 264 373 1856
2022-01-24 15:54:04 GMT 52.131729 19.725647 20,750 264 373 1856
2022-01-24 15:54:00 GMT 52.132370 19.734344 20,675 264 373 1920
2022-01-24 15:53:57 GMT 52.132874 19.741804 20,600 264 372 1920
2022-01-24 15:53:53 GMT 52.133652 19.752426 20,425 264 372 1792
2022-01-24 15:53:50 GMT 52.134338 19.762344 20,300 264 371 1792
2022-01-24 15:53:46 GMT 52.135208 19.774551 20,225 264 370 1728
2022-01-24 15:53:41 GMT 52.135994 19.785986 20,050 264 370 1728
2022-01-24 15:53:38 GMT 52.136536 19.793243 19,950 264 369 1792
2022-01-24 15:53:35 GMT 52.137157 19.802544 19,925 264 369 1856
2022-01-24 15:53:32 GMT 52.137714 19.810469 19,850 264 369 1856
2022-01-24 15:53:29 GMT 52.138508 19.821533 19,725 264 368 1920
2022-01-24 15:53:26 GMT 52.138924 19.828125 19,450 264 367 1728
2022-01-24 15:53:21 GMT 52.139877 19.841614 19,450 264 367 1792
2022-01-24 15:53:18 GMT 52.140415 19.848921 19,400 264 367 1664
2022-01-24 15:53:15 GMT 52.140884 19.856110 19,200 264 366 1664
2022-01-24 15:53:11 GMT 52.141766 19.868382 19,200 264 366 1664
2022-01-24 15:53:08 GMT 52.142853 19.884415 19,075 264 364 1792
2022-01-24 15:53:05 GMT 52.142853 19.884415 19,025 264 362 1728
2022-01-24 15:53:01 GMT 52.143814 19.898300 18,400 264 362 1664
2022-01-24 15:52:58 GMT 52.144371 19.906599 18,775 264 362 1472
2022-01-24 15:52:55 GMT 52.144775 19.912262 18,750 264 359 1216
2022-01-24 15:52:52 GMT 52.145325 19.919891 18,700 264 361 1344
2022-01-24 15:52:48 GMT 52.146057 19.930573 18,600 264 360 1216
2022-01-24 15:52:45 GMT 52.147118 19.946384 18,475 264 359 1216
2022-01-24 15:52:42 GMT 52.147118 19.946384 18,500 264 358 1216
2022-01-24 15:52:38 GMT 52.147861 19.957998 18,400 264 357 1408
2022-01-24 15:52:35 GMT 52.148346 19.965057 18,325 264 356 1600
2022-01-24 15:52:29 GMT 52.149353 19.981003 18,175 266 354 1664
2022-01-24 15:52:26 GMT 52.149677 19.988997 18,075 267 353 1728
2022-01-24 15:52:23 GMT 52.149864 19.995354 17,775 274 348 1600
2022-01-24 15:52:20 GMT 52.149960 20.007986 17,875 272 350 1664
2022-01-24 15:52:17 GMT 52.149857 20.014877 17,800 273 349 1600
2022-01-24 15:52:14 GMT 52.149727 20.019524 17,750 274 348 1600
2022-01-24 15:52:08 GMT 52.148575 20.038757 17,550 278 345 1728
2022-01-24 15:52:04 GMT 52.147861 20.046438 17,400 283 341 1600
2022-01-24 15:51:57 GMT 52.145645 20.064087 17,225 285 340 1600
2022-01-24 15:51:53 GMT 52.144226 20.072937 15,550 286 339 1664
2022-01-24 15:51:47 GMT 52.141617 20.088654 17,000 286 338 1664
2022-01-24 15:51:43 GMT 52.140152 20.097351 16,850 286 337 1728
2022-01-24 15:51:40 GMT 52.138504 20.107193 16,800 286 337 1728
2022-01-24 15:51:36 GMT 52.136642 20.118479 16,675 286 337 1728
2022-01-24 15:51:33 GMT 52.135994 20.122402 16,625 286 337 1728
2022-01-24 15:51:30 GMT 52.134247 20.132828 16,475 286 336 1792
2022-01-24 15:51:27 GMT 52.133423 20.137711 16,425 286 336 1792
2022-01-24 15:51:22 GMT 52.131569 20.148689 16,300 286 336 1792
2022-01-24 15:51:17 GMT 52.129211 20.163116 16,150 286 336 1600
2022-01-24 15:51:13 GMT 52.127335 20.174273 16,025 286 335 1472
2022-01-24 15:51:09 GMT 52.126030 20.181885 15,925 286 333 1344
2022-01-24 15:51:06 GMT 52.125053 20.187693 12,875 286 316 1856
2022-01-24 15:51:03 GMT 52.123425 20.197500 15,800 286 332 1408
2022-01-24 15:51:00 GMT 52.122391 20.203781 15,775 286 331 1472
2022-01-24 15:50:57 GMT 52.121002 20.211941 15,650 286 330 1728
2022-01-24 15:50:52 GMT 52.119419 20.221436 15,400 286 329 1792
2022-01-24 15:50:47 GMT 52.117081 20.235367 15,350 286 329 1856
2022-01-24 15:50:44 GMT 52.114700 20.249481 15,250 286 329 1920
2022-01-24 15:50:41 GMT 52.114700 20.249481 15,175 286 329 1856
2022-01-24 15:50:36 GMT 52.112778 20.260925 15,025 286 328 1856
2022-01-24 15:50:32 GMT 52.111225 20.270168 14,900 286 328 1856
2022-01-24 15:50:28 GMT 52.109573 20.280151 14,775 286 328 1792
2022-01-24 15:50:25 GMT 52.108528 20.286255 14,700 286 327 1792
2022-01-24 15:50:21 GMT 52.106758 20.296770 14,575 286 327 1792
2022-01-24 15:50:18 GMT 52.105408 20.304794 14,450 286 326 1728
2022-01-24 15:50:15 GMT 52.104584 20.309525 13,975 286 321 1664
2022-01-24 15:50:10 GMT 52.101883 20.325546 14,225 286 324 1920
2022-01-24 15:50:06 GMT 52.100601 20.333099 14,100 286 324 1920
2022-01-24 15:50:03 GMT 52.099590 20.339226 14,000 286 324 1984
2022-01-24 15:50:00 GMT 52.096848 20.355530 13,875 286 324 1984
2022-01-24 15:49:56 GMT 52.096848 20.355530 13,775 286 323 1984
2022-01-24 15:49:53 GMT 52.095352 20.364414 13,675 286 323 1920
2022-01-24 15:49:46 GMT 52.092934 20.378540 13,525 286 323 1728
2022-01-24 15:49:43 GMT 52.090347 20.393982 13,325 286 321 1664
2022-01-24 15:49:35 GMT 52.088554 20.404514 13,200 286 319 1664
2022-01-24 15:49:31 GMT 52.086788 20.414795 13,075 286 318 1728
2022-01-24 15:49:27 GMT 52.085449 20.422592 12,875 286 316 1792
2022-01-24 15:49:24 GMT 52.084133 20.430410 12,875 286 316 1856
2022-01-24 15:49:20 GMT 52.082199 20.441818 12,725 286 315 2048
2022-01-24 15:49:17 GMT 52.081341 20.446812 12,625 286 315 2176
2022-01-24 15:49:13 GMT 52.079662 20.456858 12,475 286 315 2240
2022-01-24 15:49:10 GMT 52.078873 20.461409 12,400 286 315 2304
2022-01-24 15:49:07 GMT 52.077393 20.470047 12,225 286 315 2048
2022-01-24 15:49:04 GMT 52.076477 20.475540 12,175 286 315 1984
2022-01-24 15:48:59 GMT 52.074543 20.486992 11,875 286 314 2112
2022-01-24 15:48:54 GMT 52.072586 20.498352 11,750 286 314 2112
2022-01-24 15:48:51 GMT 52.071396 20.505447 11,725 286 314 2112
2022-01-24 15:48:44 GMT 52.068741 20.521011 11,300 286 313 1920
2022-01-24 15:48:36 GMT 52.065491 20.540009 11,200 286 311 1856
2022-01-24 15:48:33 GMT 52.064770 20.544041 11,200 286 311 1856
2022-01-24 15:48:28 GMT 52.062626 20.556677 10,550 286 285 2048
2022-01-24 15:48:25 GMT 52.061508 20.563354 10,875 286 308 1728
2022-01-24 15:48:22 GMT 52.059952 20.572281 10,800 286 307 1600
2022-01-24 15:48:15 GMT 52.057785 20.585083 10,675 286 303 1216
2022-01-24 15:48:11 GMT 52.056198 20.594330 10,600 286 301 896
2022-01-24 15:48:03 GMT 52.053223 20.611572 10,500 286 292 832
2022-01-24 15:47:56 GMT 52.050522 20.627365 10,325 286 286 1920
2022-01-24 15:47:53 GMT 52.049591 20.632717 10,250 286 285 2112
2022-01-24 15:47:50 GMT 52.048615 20.638523 10,150 286 285 2240
2022-01-24 15:47:44 GMT 52.046612 20.650139 9,950 286 284 2368
2022-01-24 15:47:41 GMT 52.044983 20.659561 9,775 286 284 2304
2022-01-24 15:47:33 GMT 52.041504 20.680008 9,475 286 283 2304
2022-01-24 15:47:30 GMT 52.041504 20.680008 9,400 286 283 2240
2022-01-24 15:47:25 GMT 52.039673 20.690536 9,150 286 282 2176
2022-01-24 15:47:22 GMT 52.038803 20.695572 9,125 286 281 2112
2022-01-24 15:47:15 GMT 52.036232 20.710484 8,800 284 279 1728
2022-01-24 15:47:12 GMT 52.035278 20.716553 8,800 283 278 1728
2022-01-24 15:47:02 GMT 52.033066 20.736694 8,475 278 277 2240
2022-01-24 15:46:54 GMT 52.032181 20.753174 8,100 271 276 2624
2022-01-24 15:46:51 GMT 52.032074 20.758438 8,050 271 276 2688
2022-01-24 15:46:44 GMT 52.032349 20.775070 7,650 268 275 2688
2022-01-24 15:46:41 GMT 52.032459 20.779619 7,575 268 275 2688
2022-01-24 15:46:38 GMT 52.032600 20.786055 7,450 268 275 2688
2022-01-24 15:46:34 GMT 52.032806 20.795593 7,225 268 274 2816
2022-01-24 15:46:30 GMT 52.033218 20.812073 6,200 268 273 2752
2022-01-24 15:46:24 GMT 52.033310 20.816116 6,750 268 271 2560
2022-01-24 15:46:21 GMT 52.033390 20.820583 6,675 268 271 2688
2022-01-24 15:46:13 GMT 52.033764 20.837534 6,325 268 268 2432
2022-01-24 15:46:09 GMT 52.033997 20.847969 6,125 269 266 2496
2022-01-24 15:46:00 GMT 52.034508 20.872297 5,800 269 261 2432
2022-01-24 15:45:52 GMT 52.034649 20.879988 5,450 269 257 2688
2022-01-24 15:45:49 GMT 52.034740 20.884773 5,325 268 257 2752
2022-01-24 15:45:43 GMT 52.035049 20.896606 5,050 266 255 2816
2022-01-24 15:45:40 GMT 52.035690 20.904999 4,850 247 255 2496
2022-01-24 15:45:33 GMT 52.038605 20.919146 4,625 248 254 2496
2022-01-24 15:45:30 GMT 52.038605 20.919146 4,550 243 255 2560
2022-01-24 15:45:23 GMT 52.044022 20.932083 4,100 225 255 2752
2022-01-24 15:45:20 GMT 52.045670 20.934830 4,100 224 255 2688
2022-01-24 15:45:12 GMT 52.052803 20.944258 3,750 216 254 2560
2022-01-24 15:45:09 GMT 52.055504 20.947317 3,625 216 253 2496
2022-01-24 15:45:05 GMT 52.060272 20.952759 3,425 216 251 2368
2022-01-24 15:45:01 GMT 52.063934 20.957031 3,200 216 247 2432
2022-01-24 15:44:57 GMT 52.067513 20.961208 3,100 217 243 2176
2022-01-24 15:44:52 GMT 52.071892 20.966467 2,900 217 240 1792
2022-01-24 15:44:49 GMT 52.074188 20.969238 2,700 218 234 1280
2022-01-24 15:44:42 GMT 52.080643 20.977249 2,725 219 226 896
2022-01-24 15:44:39 GMT 52.090576 20.990677 2,650 193 212 1344
2022-01-24 15:44:29 GMT 52.090576 20.990677 2,350 223 208 2880
2022-01-24 15:44:22 GMT 52.096237 20.998796 1,925 218 209 3072
2022-01-24 15:44:19 GMT 52.098145 21.000994 1,825 213 211 2752
2022-01-24 15:44:11 GMT 52.105129 21.006252 1,500 194 211 1408
2022-01-24 15:44:07 GMT 52.109619 21.007767 1,425 187 211 1152
2022-01-24 15:44:01 GMT 52.114487 21.007664 1,350 172 207 832
2022-01-24 15:43:57 GMT 52.118210 21.006409 1,300 163 203 640
2022-01-24 15:43:49 GMT 52.125458 21.001587 1,225 154 189 704
2022-01-24 15:43:39 GMT 52.132549 20.995972 1,125 153 171 640
2022-01-24 15:43:36 GMT 52.134888 20.994034 1,100 152 166 704
2022-01-24 15:43:29 GMT 52.139420 20.990219 1,000 151 154 1344
2022-01-24 15:43:26 GMT 52.141300 20.988594 925 151 151 1536
2022-01-24 15:43:21 GMT 52.144363 20.985870 725 151 146 1984
2022-01-24 15:43:18 GMT 52.146286 20.984116 675 151 145 2048
2022-01-24 15:43:07 GMT 52.152420 20.978775 300 151 145 1984

Making use of Plane Finder data

You are free to use the raw flight data, aircraft information and images provided in this report for your own purposes provided the data is correctly attributed to Plane Finder. We ask that you please credit Plane Finder and link to planefinder.net in close proximity to the content.

Optionally one of the following logos (no smaller then 150x24px) can be used and must link to planefinder.net

Embedding the Plane Finder map

You are welcome to embed the Plane Finder playback map on your website to offer visitors a more interactive experience. We suggest using the following HTML code:

<iframe src="//planefinder.net/data/report/LO233-SP-LND-7700-squawk-2022-01-24/map" width="800" height="600" seamless="seamless"></iframe>

Where our data comes from

Plane Finder has a global network of data feeds and antenna radars that receive data broadcast directly from aircraft. The primary technologies used are ADS-B and MLAT. We also show feeds from the FAA and a FLARM glider feed.

Click here to find out more about the Plane Finder network.

How we collect our data